<?xml version="1.0" encoding="UTF-8" standalone="no" ?>
<gpx xmlns="http://www.topografix.com/GPX/1/1" xmlns:xsi="http://www.w3.org/2001/XMLSchema-instance" xsi:schemaLocation="http://www.topografix.com/GPX/1/1 http://www.topografix.com/GPX/1/1/gpx.xsd" version="1.1" creator="VisuGPX - https://www.visugpx.com">
  <metadata>
    <name>San Pedro del Pinatar</name>
  </metadata>
  <trk>
    <name><![CDATA[San Pedro del Pinatar]]></name>
    <extensions>
      <line xmlns="http://www.topografix.com/GPX/gpx_style/0/2">
        <color>0000FF</color>
        <width>4</width>
      </line>
    </extensions>
    <trkseg>
      <trkpt lat="37.82025" lon="-0.7775">
        <ele>4.333078</ele>
        <time>2022-04-29T09:51:07.000Z</time>
      </trkpt>
      <trkpt lat="37.82025" lon="-0.7775">
        <ele>4.333078</ele>
        <time>2022-04-29T09:51:08.000Z</time>
      </trkpt>
      <trkpt lat="37.82025" lon="-0.7775">
        <ele>4.333078</ele>
        <time>2022-04-29T09:51:13.000Z</time>
      </trkpt>
      <trkpt lat="37.82026" lon="-0.77744">
        <ele>4.333078</ele>
        <time>2022-04-29T09:51:16.000Z</time>
      </trkpt>
      <trkpt lat="37.82026" lon="-0.77742">
        <ele>4.333078</ele>
        <time>2022-04-29T09:51:17.000Z</time>
      </trkpt>
      <trkpt lat="37.82025" lon="-0.77739">
        <ele>4.333078</ele>
        <time>2022-04-29T09:51:21.000Z</time>
      </trkpt>
      <trkpt lat="37.82026" lon="-0.77738">
        <ele>4.333078</ele>
        <time>2022-04-29T09:51:24.000Z</time>
      </trkpt>
      <trkpt lat="37.82026" lon="-0.77738">
        <ele>4.333078</ele>
        <time>2022-04-29T09:51:32.000Z</time>
      </trkpt>
      <trkpt lat="37.82015" lon="-0.77698">
        <ele>4.333078</ele>
        <time>2022-04-29T10:14:40.000Z</time>
      </trkpt>
      <trkpt lat="37.82013" lon="-0.77691">
        <ele>4.333078</ele>
        <time>2022-04-29T10:14:41.000Z</time>
      </trkpt>
      <trkpt lat="37.82011" lon="-0.7769">
        <ele>4.333078</ele>
        <time>2022-04-29T10:14:42.000Z</time>
      </trkpt>
      <trkpt lat="37.82019" lon="-0.77677">
        <ele>4.333078</ele>
        <time>2022-04-29T10:14:46.000Z</time>
      </trkpt>
      <trkpt lat="37.82021" lon="-0.77652">
        <ele>4.333078</ele>
        <time>2022-04-29T10:14:52.000Z</time>
      </trkpt>
      <trkpt lat="37.8202" lon="-0.77632">
        <ele>4.416293</ele>
        <time>2022-04-29T10:14:57.000Z</time>
      </trkpt>
      <trkpt lat="37.82013" lon="-0.7761">
        <ele>4.553152</ele>
        <time>2022-04-29T10:15:03.000Z</time>
      </trkpt>
      <trkpt lat="37.82011" lon="-0.77604">
        <ele>4.591262</ele>
        <time>2022-04-29T10:15:05.000Z</time>
      </trkpt>
      <trkpt lat="37.82006" lon="-0.77595">
        <ele>4.652391</ele>
        <time>2022-04-29T10:15:08.000Z</time>
      </trkpt>
      <trkpt lat="37.81999" lon="-0.77592">
        <ele>4.702649</ele>
        <time>2022-04-29T10:15:10.000Z</time>
      </trkpt>
      <trkpt lat="37.81985" lon="-0.77584">
        <ele>4.814822</ele>
        <time>2022-04-29T10:15:14.000Z</time>
      </trkpt>
      <trkpt lat="37.81966" lon="-0.77572">
        <ele>4.969822</ele>
        <time>2022-04-29T10:15:19.000Z</time>
      </trkpt>
      <trkpt lat="37.81962" lon="-0.77569">
        <ele>5.00413</ele>
        <time>2022-04-29T10:15:20.000Z</time>
      </trkpt>
      <trkpt lat="37.81938" lon="-0.77553">
        <ele>5.206205</ele>
        <time>2022-04-29T10:15:27.000Z</time>
      </trkpt>
      <trkpt lat="37.81935" lon="-0.7755">
        <ele>5.233201</ele>
        <time>2022-04-29T10:15:28.000Z</time>
      </trkpt>
      <trkpt lat="37.81912" lon="-0.77532">
        <ele>5.427029</ele>
        <time>2022-04-29T10:15:35.000Z</time>
      </trkpt>
      <trkpt lat="37.81909" lon="-0.7753">
        <ele>5.450177</ele>
        <time>2022-04-29T10:15:36.000Z</time>
      </trkpt>
      <trkpt lat="37.81889" lon="-0.77515">
        <ele>5.62533</ele>
        <time>2022-04-29T10:15:42.000Z</time>
      </trkpt>
      <trkpt lat="37.81881" lon="-0.7751">
        <ele>5.657394</ele>
        <time>2022-04-29T10:15:44.000Z</time>
      </trkpt>
      <trkpt lat="37.81858" lon="-0.77494">
        <ele>5.702288</ele>
        <time>2022-04-29T10:15:51.000Z</time>
      </trkpt>
      <trkpt lat="37.81845" lon="-0.77484">
        <ele>5.728168</ele>
        <time>2022-04-29T10:15:55.000Z</time>
      </trkpt>
      <trkpt lat="37.81829" lon="-0.77473">
        <ele>5.758552</ele>
        <time>2022-04-29T10:16:00.000Z</time>
      </trkpt>
      <trkpt lat="37.81802" lon="-0.77455">
        <ele>5.810332</ele>
        <time>2022-04-29T10:16:07.000Z</time>
      </trkpt>
      <trkpt lat="37.81784" lon="-0.77443">
        <ele>5.846059</ele>
        <time>2022-04-29T10:16:12.000Z</time>
      </trkpt>
      <trkpt lat="37.81769" lon="-0.77432">
        <ele>5.875779</ele>
        <time>2022-04-29T10:16:16.000Z</time>
      </trkpt>
      <trkpt lat="37.81743" lon="-0.77414">
        <ele>5.926139</ele>
        <time>2022-04-29T10:16:23.000Z</time>
      </trkpt>
      <trkpt lat="37.81736" lon="-0.77409">
        <ele>5.939444</ele>
        <time>2022-04-29T10:16:25.000Z</time>
      </trkpt>
      <trkpt lat="37.8173" lon="-0.77405">
        <ele>5.95194</ele>
        <time>2022-04-29T10:16:27.000Z</time>
      </trkpt>
      <trkpt lat="37.81726" lon="-0.77402">
        <ele>5.949306</ele>
        <time>2022-04-29T10:16:28.000Z</time>
      </trkpt>
      <trkpt lat="37.81686" lon="-0.77373">
        <ele>5.864624</ele>
        <time>2022-04-29T10:16:39.000Z</time>
      </trkpt>
      <trkpt lat="37.81664" lon="-0.7736">
        <ele>5.818401</ele>
        <time>2022-04-29T10:16:45.000Z</time>
      </trkpt>
      <trkpt lat="37.81655" lon="-0.77356">
        <ele>5.800846</ele>
        <time>2022-04-29T10:16:47.000Z</time>
      </trkpt>
      <trkpt lat="37.81652" lon="-0.77355">
        <ele>5.794823</ele>
        <time>2022-04-29T10:16:48.000Z</time>
      </trkpt>
      <trkpt lat="37.81648" lon="-0.77352">
        <ele>5.787029</ele>
        <time>2022-04-29T10:16:49.000Z</time>
      </trkpt>
      <trkpt lat="37.81633" lon="-0.77342">
        <ele>5.75615</ele>
        <time>2022-04-29T10:16:53.000Z</time>
      </trkpt>
      <trkpt lat="37.81626" lon="-0.77336">
        <ele>5.740045</ele>
        <time>2022-04-29T10:16:55.000Z</time>
      </trkpt>
      <trkpt lat="37.816" lon="-0.77317">
        <ele>5.684741</ele>
        <time>2022-04-29T10:17:02.000Z</time>
      </trkpt>
      <trkpt lat="37.8159" lon="-0.7731">
        <ele>5.664008</ele>
        <time>2022-04-29T10:17:05.000Z</time>
      </trkpt>
      <trkpt lat="37.81582" lon="-0.77304">
        <ele>5.646569</ele>
        <time>2022-04-29T10:17:07.000Z</time>
      </trkpt>
      <trkpt lat="37.81572" lon="-0.77296">
        <ele>5.624201</ele>
        <time>2022-04-29T10:17:10.000Z</time>
      </trkpt>
      <trkpt lat="37.81549" lon="-0.77283">
        <ele>5.556017</ele>
        <time>2022-04-29T10:17:16.000Z</time>
      </trkpt>
      <trkpt lat="37.81541" lon="-0.77278">
        <ele>5.530727</ele>
        <time>2022-04-29T10:17:18.000Z</time>
      </trkpt>
      <trkpt lat="37.81527" lon="-0.77269">
        <ele>5.488568</ele>
        <time>2022-04-29T10:17:22.000Z</time>
      </trkpt>
      <trkpt lat="37.81524" lon="-0.77266">
        <ele>5.477689</ele>
        <time>2022-04-29T10:17:23.000Z</time>
      </trkpt>
      <trkpt lat="37.81517" lon="-0.7726">
        <ele>5.455467</ele>
        <time>2022-04-29T10:17:25.000Z</time>
      </trkpt>
      <trkpt lat="37.81509" lon="-0.77256">
        <ele>5.432547</ele>
        <time>2022-04-29T10:17:27.000Z</time>
      </trkpt>
      <trkpt lat="37.81496" lon="-0.77246">
        <ele>5.388557</ele>
        <time>2022-04-29T10:17:31.000Z</time>
      </trkpt>
      <trkpt lat="37.81484" lon="-0.77238">
        <ele>5.351517</ele>
        <time>2022-04-29T10:17:34.000Z</time>
      </trkpt>
      <trkpt lat="37.81464" lon="-0.77223">
        <ele>5.287463</ele>
        <time>2022-04-29T10:17:39.000Z</time>
      </trkpt>
      <trkpt lat="37.81457" lon="-0.77217">
        <ele>5.263844</ele>
        <time>2022-04-29T10:17:41.000Z</time>
      </trkpt>
      <trkpt lat="37.81454" lon="-0.77215">
        <ele>5.254749</ele>
        <time>2022-04-29T10:17:42.000Z</time>
      </trkpt>
      <trkpt lat="37.81429" lon="-0.77204">
        <ele>5.181168</ele>
        <time>2022-04-29T10:17:48.000Z</time>
      </trkpt>
      <trkpt lat="37.8142" lon="-0.77197">
        <ele>5.153473</ele>
        <time>2022-04-29T10:17:50.000Z</time>
      </trkpt>
      <trkpt lat="37.81415" lon="-0.77194">
        <ele>5.138814</ele>
        <time>2022-04-29T10:17:51.000Z</time>
      </trkpt>
      <trkpt lat="37.81409" lon="-0.7719">
        <ele>5.125144</ele>
        <time>2022-04-29T10:17:53.000Z</time>
      </trkpt>
      <trkpt lat="37.81405" lon="-0.77187">
        <ele>5.123443</ele>
        <time>2022-04-29T10:17:54.000Z</time>
      </trkpt>
      <trkpt lat="37.81394" lon="-0.7718">
        <ele>5.118805</ele>
        <time>2022-04-29T10:17:57.000Z</time>
      </trkpt>
      <trkpt lat="37.8139" lon="-0.77178">
        <ele>5.117405</ele>
        <time>2022-04-29T10:17:58.000Z</time>
      </trkpt>
      <trkpt lat="37.81387" lon="-0.77176">
        <ele>5.1159</ele>
        <time>2022-04-29T10:17:59.000Z</time>
      </trkpt>
      <trkpt lat="37.81374" lon="-0.77166">
        <ele>5.110252</ele>
        <time>2022-04-29T10:18:03.000Z</time>
      </trkpt>
      <trkpt lat="37.81354" lon="-0.7715">
        <ele>5.101274</ele>
        <time>2022-04-29T10:18:09.000Z</time>
      </trkpt>
      <trkpt lat="37.8135" lon="-0.77148">
        <ele>5.099713</ele>
        <time>2022-04-29T10:18:10.000Z</time>
      </trkpt>
      <trkpt lat="37.81341" lon="-0.77144">
        <ele>5.096313</ele>
        <time>2022-04-29T10:18:12.000Z</time>
      </trkpt>
      <trkpt lat="37.81335" lon="-0.77139">
        <ele>5.093481</ele>
        <time>2022-04-29T10:18:14.000Z</time>
      </trkpt>
      <trkpt lat="37.81328" lon="-0.77133">
        <ele>5.090346</ele>
        <time>2022-04-29T10:18:16.000Z</time>
      </trkpt>
      <trkpt lat="37.81309" lon="-0.7712">
        <ele>5.082232</ele>
        <time>2022-04-29T10:18:21.000Z</time>
      </trkpt>
      <trkpt lat="37.81302" lon="-0.77115">
        <ele>5.078946</ele>
        <time>2022-04-29T10:18:23.000Z</time>
      </trkpt>
      <trkpt lat="37.81295" lon="-0.7711">
        <ele>5.076063</ele>
        <time>2022-04-29T10:18:25.000Z</time>
      </trkpt>
      <trkpt lat="37.81281" lon="-0.771">
        <ele>5.069873</ele>
        <time>2022-04-29T10:18:29.000Z</time>
      </trkpt>
      <trkpt lat="37.81273" lon="-0.77095">
        <ele>5.066815</ele>
        <time>2022-04-29T10:18:31.000Z</time>
      </trkpt>
      <trkpt lat="37.81262" lon="-0.77086">
        <ele>5.061693</ele>
        <time>2022-04-29T10:18:34.000Z</time>
      </trkpt>
      <trkpt lat="37.81259" lon="-0.77084">
        <ele>5.060478</ele>
        <time>2022-04-29T10:18:35.000Z</time>
      </trkpt>
      <trkpt lat="37.8124" lon="-0.77072">
        <ele>5.059652</ele>
        <time>2022-04-29T10:18:40.000Z</time>
      </trkpt>
      <trkpt lat="37.81237" lon="-0.7707">
        <ele>5.059954</ele>
        <time>2022-04-29T10:18:41.000Z</time>
      </trkpt>
      <trkpt lat="37.81228" lon="-0.77064">
        <ele>5.060679</ele>
        <time>2022-04-29T10:18:43.000Z</time>
      </trkpt>
      <trkpt lat="37.81219" lon="-0.77055">
        <ele>5.061562</ele>
        <time>2022-04-29T10:18:46.000Z</time>
      </trkpt>
      <trkpt lat="37.81216" lon="-0.77051">
        <ele>5.061861</ele>
        <time>2022-04-29T10:18:47.000Z</time>
      </trkpt>
      <trkpt lat="37.81191" lon="-0.77032">
        <ele>5.064098</ele>
        <time>2022-04-29T10:18:54.000Z</time>
      </trkpt>
      <trkpt lat="37.81165" lon="-0.77015">
        <ele>5.066267</ele>
        <time>2022-04-29T10:19:02.000Z</time>
      </trkpt>
      <trkpt lat="37.81146" lon="-0.77002">
        <ele>5.067875</ele>
        <time>2022-04-29T10:19:08.000Z</time>
      </trkpt>
      <trkpt lat="37.81136" lon="-0.76995">
        <ele>5.068764</ele>
        <time>2022-04-29T10:19:11.000Z</time>
      </trkpt>
      <trkpt lat="37.81124" lon="-0.76987">
        <ele>5.069791</ele>
        <time>2022-04-29T10:19:15.000Z</time>
      </trkpt>
      <trkpt lat="37.81112" lon="-0.7698">
        <ele>5.070742</ele>
        <time>2022-04-29T10:19:19.000Z</time>
      </trkpt>
      <trkpt lat="37.81108" lon="-0.76978">
        <ele>5.07113</ele>
        <time>2022-04-29T10:19:21.000Z</time>
      </trkpt>
      <trkpt lat="37.81093" lon="-0.76966">
        <ele>5.060234</ele>
        <time>2022-04-29T10:19:27.000Z</time>
      </trkpt>
      <trkpt lat="37.8107" lon="-0.76947">
        <ele>5.005187</ele>
        <time>2022-04-29T10:19:35.000Z</time>
      </trkpt>
      <trkpt lat="37.81055" lon="-0.76938">
        <ele>4.9722</ele>
        <time>2022-04-29T10:19:40.000Z</time>
      </trkpt>
      <trkpt lat="37.81024" lon="-0.76913">
        <ele>4.897989</ele>
        <time>2022-04-29T10:19:50.000Z</time>
      </trkpt>
      <trkpt lat="37.80994" lon="-0.76891">
        <ele>4.829446</ele>
        <time>2022-04-29T10:19:59.000Z</time>
      </trkpt>
      <trkpt lat="37.80979" lon="-0.76881">
        <ele>4.79441</ele>
        <time>2022-04-29T10:20:04.000Z</time>
      </trkpt>
      <trkpt lat="37.80969" lon="-0.76874">
        <ele>4.772379</ele>
        <time>2022-04-29T10:20:07.000Z</time>
      </trkpt>
      <trkpt lat="37.8096" lon="-0.76867">
        <ele>4.749981</ele>
        <time>2022-04-29T10:20:10.000Z</time>
      </trkpt>
      <trkpt lat="37.80957" lon="-0.76865">
        <ele>4.744553</ele>
        <time>2022-04-29T10:20:11.000Z</time>
      </trkpt>
      <trkpt lat="37.80945" lon="-0.76856">
        <ele>4.716483</ele>
        <time>2022-04-29T10:20:15.000Z</time>
      </trkpt>
      <trkpt lat="37.80933" lon="-0.76846">
        <ele>4.69356</ele>
        <time>2022-04-29T10:20:19.000Z</time>
      </trkpt>
      <trkpt lat="37.8092" lon="-0.7684">
        <ele>4.673642</ele>
        <time>2022-04-29T10:20:23.000Z</time>
      </trkpt>
      <trkpt lat="37.80908" lon="-0.76831">
        <ele>4.651995</ele>
        <time>2022-04-29T10:20:27.000Z</time>
      </trkpt>
      <trkpt lat="37.80893" lon="-0.76821">
        <ele>4.62717</ele>
        <time>2022-04-29T10:20:31.000Z</time>
      </trkpt>
      <trkpt lat="37.80866" lon="-0.76802">
        <ele>4.582764</ele>
        <time>2022-04-29T10:20:39.000Z</time>
      </trkpt>
      <trkpt lat="37.80847" lon="-0.76788">
        <ele>4.550317</ele>
        <time>2022-04-29T10:20:45.000Z</time>
      </trkpt>
      <trkpt lat="37.8083" lon="-0.76777">
        <ele>4.522762</ele>
        <time>2022-04-29T10:20:50.000Z</time>
      </trkpt>
      <trkpt lat="37.80806" lon="-0.7676">
        <ele>4.481981</ele>
        <time>2022-04-29T10:20:57.000Z</time>
      </trkpt>
      <trkpt lat="37.80798" lon="-0.76753">
        <ele>4.467309</ele>
        <time>2022-04-29T10:21:00.000Z</time>
      </trkpt>
      <trkpt lat="37.80781" lon="-0.76739">
        <ele>4.423887</ele>
        <time>2022-04-29T10:21:06.000Z</time>
      </trkpt>
      <trkpt lat="37.80767" lon="-0.76729">
        <ele>4.3701</ele>
        <time>2022-04-29T10:21:10.000Z</time>
      </trkpt>
      <trkpt lat="37.80744" lon="-0.76717">
        <ele>4.283429</ele>
        <time>2022-04-29T10:21:16.000Z</time>
      </trkpt>
      <trkpt lat="37.8074" lon="-0.76714">
        <ele>4.266668</ele>
        <time>2022-04-29T10:21:17.000Z</time>
      </trkpt>
      <trkpt lat="37.80729" lon="-0.76706">
        <ele>4.222543</ele>
        <time>2022-04-29T10:21:20.000Z</time>
      </trkpt>
      <trkpt lat="37.80711" lon="-0.76693">
        <ele>4.15145</ele>
        <time>2022-04-29T10:21:25.000Z</time>
      </trkpt>
      <trkpt lat="37.80704" lon="-0.76688">
        <ele>4.122802</ele>
        <time>2022-04-29T10:21:27.000Z</time>
      </trkpt>
      <trkpt lat="37.80682" lon="-0.76673">
        <ele>4.034554</ele>
        <time>2022-04-29T10:21:33.000Z</time>
      </trkpt>
      <trkpt lat="37.80671" lon="-0.76664">
        <ele>3.990485</ele>
        <time>2022-04-29T10:21:36.000Z</time>
      </trkpt>
      <trkpt lat="37.80667" lon="-0.76662">
        <ele>3.974729</ele>
        <time>2022-04-29T10:21:37.000Z</time>
      </trkpt>
      <trkpt lat="37.80663" lon="-0.76659">
        <ele>3.95928</ele>
        <time>2022-04-29T10:21:38.000Z</time>
      </trkpt>
      <trkpt lat="37.80648" lon="-0.76648">
        <ele>3.900043</ele>
        <time>2022-04-29T10:21:42.000Z</time>
      </trkpt>
      <trkpt lat="37.80625" lon="-0.76633">
        <ele>3.817551</ele>
        <time>2022-04-29T10:21:48.000Z</time>
      </trkpt>
      <trkpt lat="37.80611" lon="-0.76622">
        <ele>3.797018</ele>
        <time>2022-04-29T10:21:52.000Z</time>
      </trkpt>
      <trkpt lat="37.80582" lon="-0.76601">
        <ele>3.755604</ele>
        <time>2022-04-29T10:22:00.000Z</time>
      </trkpt>
      <trkpt lat="37.80558" lon="-0.76585">
        <ele>3.723164</ele>
        <time>2022-04-29T10:22:06.000Z</time>
      </trkpt>
      <trkpt lat="37.80548" lon="-0.76578">
        <ele>3.709023</ele>
        <time>2022-04-29T10:22:09.000Z</time>
      </trkpt>
      <trkpt lat="37.80541" lon="-0.76572">
        <ele>3.699056</ele>
        <time>2022-04-29T10:22:11.000Z</time>
      </trkpt>
      <trkpt lat="37.80508" lon="-0.76549">
        <ele>3.652652</ele>
        <time>2022-04-29T10:22:20.000Z</time>
      </trkpt>
      <trkpt lat="37.80504" lon="-0.76547">
        <ele>3.647543</ele>
        <time>2022-04-29T10:22:21.000Z</time>
      </trkpt>
      <trkpt lat="37.8049" lon="-0.76536">
        <ele>3.627373</ele>
        <time>2022-04-29T10:22:25.000Z</time>
      </trkpt>
      <trkpt lat="37.80483" lon="-0.76531">
        <ele>3.617347</ele>
        <time>2022-04-29T10:22:27.000Z</time>
      </trkpt>
      <trkpt lat="37.80449" lon="-0.76508">
        <ele>3.563065</ele>
        <time>2022-04-29T10:22:36.000Z</time>
      </trkpt>
      <trkpt lat="37.80438" lon="-0.765">
        <ele>3.544557</ele>
        <time>2022-04-29T10:22:39.000Z</time>
      </trkpt>
      <trkpt lat="37.80417" lon="-0.76485">
        <ele>3.507028</ele>
        <time>2022-04-29T10:22:45.000Z</time>
      </trkpt>
      <trkpt lat="37.80402" lon="-0.76475">
        <ele>3.481568</ele>
        <time>2022-04-29T10:22:49.000Z</time>
      </trkpt>
      <trkpt lat="37.80387" lon="-0.76465">
        <ele>3.455666</ele>
        <time>2022-04-29T10:22:53.000Z</time>
      </trkpt>
      <trkpt lat="37.80383" lon="-0.76462">
        <ele>3.449321</ele>
        <time>2022-04-29T10:22:54.000Z</time>
      </trkpt>
      <trkpt lat="37.80376" lon="-0.76457">
        <ele>3.437117</ele>
        <time>2022-04-29T10:22:56.000Z</time>
      </trkpt>
      <trkpt lat="37.8035" lon="-0.7644">
        <ele>3.392792</ele>
        <time>2022-04-29T10:23:03.000Z</time>
      </trkpt>
      <trkpt lat="37.80344" lon="-0.76435">
        <ele>3.380808</ele>
        <time>2022-04-29T10:23:05.000Z</time>
      </trkpt>
      <trkpt lat="37.8034" lon="-0.76432">
        <ele>3.374715</ele>
        <time>2022-04-29T10:23:06.000Z</time>
      </trkpt>
      <trkpt lat="37.80333" lon="-0.76427">
        <ele>3.361917</ele>
        <time>2022-04-29T10:23:08.000Z</time>
      </trkpt>
      <trkpt lat="37.80292" lon="-0.76399">
        <ele>3.330949</ele>
        <time>2022-04-29T10:23:19.000Z</time>
      </trkpt>
      <trkpt lat="37.80263" lon="-0.76377">
        <ele>3.333533</ele>
        <time>2022-04-29T10:23:27.000Z</time>
      </trkpt>
      <trkpt lat="37.80259" lon="-0.76373">
        <ele>3.333875</ele>
        <time>2022-04-29T10:23:28.000Z</time>
      </trkpt>
      <trkpt lat="37.80255" lon="-0.76371">
        <ele>3.334199</ele>
        <time>2022-04-29T10:23:29.000Z</time>
      </trkpt>
      <trkpt lat="37.80235" lon="-0.76358">
        <ele>3.335864</ele>
        <time>2022-04-29T10:23:34.000Z</time>
      </trkpt>
      <trkpt lat="37.80197" lon="-0.76332">
        <ele>3.339169</ele>
        <time>2022-04-29T10:23:44.000Z</time>
      </trkpt>
      <trkpt lat="37.80148" lon="-0.76297">
        <ele>3.341061</ele>
        <time>2022-04-29T10:23:57.000Z</time>
      </trkpt>
      <trkpt lat="37.80144" lon="-0.76294">
        <ele>3.340359</ele>
        <time>2022-04-29T10:23:58.000Z</time>
      </trkpt>
      <trkpt lat="37.8014" lon="-0.76291">
        <ele>3.33959</ele>
        <time>2022-04-29T10:23:59.000Z</time>
      </trkpt>
      <trkpt lat="37.8012" lon="-0.76274">
        <ele>3.335693</ele>
        <time>2022-04-29T10:24:05.000Z</time>
      </trkpt>
      <trkpt lat="37.80117" lon="-0.76272">
        <ele>3.335142</ele>
        <time>2022-04-29T10:24:06.000Z</time>
      </trkpt>
      <trkpt lat="37.80097" lon="-0.76258">
        <ele>3.331395</ele>
        <time>2022-04-29T10:24:12.000Z</time>
      </trkpt>
      <trkpt lat="37.8009" lon="-0.76254">
        <ele>3.330113</ele>
        <time>2022-04-29T10:24:14.000Z</time>
      </trkpt>
      <trkpt lat="37.80057" lon="-0.76232">
        <ele>3.324013</ele>
        <time>2022-04-29T10:24:23.000Z</time>
      </trkpt>
      <trkpt lat="37.80049" lon="-0.76227">
        <ele>3.322651</ele>
        <time>2022-04-29T10:24:25.000Z</time>
      </trkpt>
      <trkpt lat="37.80038" lon="-0.76219">
        <ele>3.320643</ele>
        <time>2022-04-29T10:24:28.000Z</time>
      </trkpt>
      <trkpt lat="37.80032" lon="-0.76214">
        <ele>3.319408</ele>
        <time>2022-04-29T10:24:30.000Z</time>
      </trkpt>
      <trkpt lat="37.80029" lon="-0.76212">
        <ele>3.318809</ele>
        <time>2022-04-29T10:24:31.000Z</time>
      </trkpt>
      <trkpt lat="37.79993" lon="-0.76189">
        <ele>3.277431</ele>
        <time>2022-04-29T10:24:41.000Z</time>
      </trkpt>
      <trkpt lat="37.79966" lon="-0.7617">
        <ele>3.121531</ele>
        <time>2022-04-29T10:24:49.000Z</time>
      </trkpt>
      <trkpt lat="37.7994" lon="-0.76154">
        <ele>2.973743</ele>
        <time>2022-04-29T10:24:57.000Z</time>
      </trkpt>
      <trkpt lat="37.79918" lon="-0.7614">
        <ele>2.849031</ele>
        <time>2022-04-29T10:25:05.000Z</time>
      </trkpt>
      <trkpt lat="37.79902" lon="-0.7613">
        <ele>2.760616</ele>
        <time>2022-04-29T10:25:12.000Z</time>
      </trkpt>
      <trkpt lat="37.79901" lon="-0.7613">
        <ele>2.754385</ele>
        <time>2022-04-29T10:25:13.000Z</time>
      </trkpt>
      <trkpt lat="37.799" lon="-0.76129">
        <ele>2.74768</ele>
        <time>2022-04-29T10:25:16.000Z</time>
      </trkpt>
      <trkpt lat="37.79899" lon="-0.76128">
        <ele>2.744879</ele>
        <time>2022-04-29T10:25:17.000Z</time>
      </trkpt>
      <trkpt lat="37.79897" lon="-0.76126">
        <ele>2.7314</ele>
        <time>2022-04-29T10:25:19.000Z</time>
      </trkpt>
      <trkpt lat="37.79892" lon="-0.76125">
        <ele>2.70481</ele>
        <time>2022-04-29T10:25:22.000Z</time>
      </trkpt>
      <trkpt lat="37.79874" lon="-0.76124">
        <ele>2.613085</ele>
        <time>2022-04-29T10:25:31.000Z</time>
      </trkpt>
      <trkpt lat="37.79865" lon="-0.76123">
        <ele>2.568941</ele>
        <time>2022-04-29T10:25:36.000Z</time>
      </trkpt>
      <trkpt lat="37.79865" lon="-0.76123">
        <ele>2.565454</ele>
        <time>2022-04-29T10:25:38.000Z</time>
      </trkpt>
      <trkpt lat="37.79862" lon="-0.76125">
        <ele>2.549845</ele>
        <time>2022-04-29T10:25:44.000Z</time>
      </trkpt>
      <trkpt lat="37.79861" lon="-0.76126">
        <ele>2.544769</ele>
        <time>2022-04-29T10:25:45.000Z</time>
      </trkpt>
      <trkpt lat="37.79855" lon="-0.76124">
        <ele>2.511407</ele>
        <time>2022-04-29T10:25:50.000Z</time>
      </trkpt>
      <trkpt lat="37.79846" lon="-0.76124">
        <ele>2.467819</ele>
        <time>2022-04-29T10:25:56.000Z</time>
      </trkpt>
      <trkpt lat="37.79847" lon="-0.76124">
        <ele>2.465884</ele>
        <time>2022-04-29T10:26:06.000Z</time>
      </trkpt>
      <trkpt lat="37.79846" lon="-0.76124">
        <ele>2.463432</ele>
        <time>2022-04-29T10:26:11.000Z</time>
      </trkpt>
      <trkpt lat="37.79847" lon="-0.76124">
        <ele>2.461227</ele>
        <time>2022-04-29T10:26:14.000Z</time>
      </trkpt>
      <trkpt lat="37.79847" lon="-0.76124">
        <ele>2.458775</ele>
        <time>2022-04-29T10:26:24.000Z</time>
      </trkpt>
      <trkpt lat="37.79839" lon="-0.76124">
        <ele>2.420313</ele>
        <time>2022-04-29T10:26:32.000Z</time>
      </trkpt>
      <trkpt lat="37.79814" lon="-0.76122">
        <ele>2.409707</ele>
        <time>2022-04-29T10:26:39.000Z</time>
      </trkpt>
      <trkpt lat="37.79783" lon="-0.76122">
        <ele>2.419103</ele>
        <time>2022-04-29T10:26:47.000Z</time>
      </trkpt>
      <trkpt lat="37.79757" lon="-0.76122">
        <ele>2.427135</ele>
        <time>2022-04-29T10:26:54.000Z</time>
      </trkpt>
      <trkpt lat="37.79753" lon="-0.76122">
        <ele>2.428318</ele>
        <time>2022-04-29T10:26:55.000Z</time>
      </trkpt>
      <trkpt lat="37.79728" lon="-0.76122">
        <ele>2.435805</ele>
        <time>2022-04-29T10:27:01.000Z</time>
      </trkpt>
      <trkpt lat="37.79704" lon="-0.76122">
        <ele>2.443049</ele>
        <time>2022-04-29T10:27:07.000Z</time>
      </trkpt>
      <trkpt lat="37.79673" lon="-0.76122">
        <ele>2.452626</ele>
        <time>2022-04-29T10:27:15.000Z</time>
      </trkpt>
      <trkpt lat="37.7965" lon="-0.76122">
        <ele>2.471425</ele>
        <time>2022-04-29T10:27:21.000Z</time>
      </trkpt>
      <trkpt lat="37.79617" lon="-0.76121">
        <ele>2.552456</ele>
        <time>2022-04-29T10:27:29.000Z</time>
      </trkpt>
      <trkpt lat="37.796" lon="-0.7612">
        <ele>2.592955</ele>
        <time>2022-04-29T10:27:34.000Z</time>
      </trkpt>
      <trkpt lat="37.79598" lon="-0.7612">
        <ele>2.599307</ele>
        <time>2022-04-29T10:27:35.000Z</time>
      </trkpt>
      <trkpt lat="37.79578" lon="-0.76121">
        <ele>2.648876</ele>
        <time>2022-04-29T10:27:41.000Z</time>
      </trkpt>
      <trkpt lat="37.7955" lon="-0.76123">
        <ele>2.716969</ele>
        <time>2022-04-29T10:27:48.000Z</time>
      </trkpt>
      <trkpt lat="37.79542" lon="-0.76123">
        <ele>2.736756</ele>
        <time>2022-04-29T10:27:50.000Z</time>
      </trkpt>
      <trkpt lat="37.79507" lon="-0.76125">
        <ele>2.821458</ele>
        <time>2022-04-29T10:27:59.000Z</time>
      </trkpt>
      <trkpt lat="37.79486" lon="-0.76125">
        <ele>2.872428</ele>
        <time>2022-04-29T10:28:05.000Z</time>
      </trkpt>
      <trkpt lat="37.79472" lon="-0.76123">
        <ele>2.913611</ele>
        <time>2022-04-29T10:28:09.000Z</time>
      </trkpt>
      <trkpt lat="37.79452" lon="-0.76112">
        <ele>2.993415</ele>
        <time>2022-04-29T10:28:15.000Z</time>
      </trkpt>
      <trkpt lat="37.79449" lon="-0.76109">
        <ele>3.005322</ele>
        <time>2022-04-29T10:28:16.000Z</time>
      </trkpt>
      <trkpt lat="37.79436" lon="-0.76094">
        <ele>3.070134</ele>
        <time>2022-04-29T10:28:22.000Z</time>
      </trkpt>
      <trkpt lat="37.79426" lon="-0.76071">
        <ele>3.149139</ele>
        <time>2022-04-29T10:28:30.000Z</time>
      </trkpt>
      <trkpt lat="37.79419" lon="-0.76045">
        <ele>3.226292</ele>
        <time>2022-04-29T10:28:37.000Z</time>
      </trkpt>
      <trkpt lat="37.79417" lon="-0.76039">
        <ele>3.247927</ele>
        <time>2022-04-29T10:28:39.000Z</time>
      </trkpt>
      <trkpt lat="37.79408" lon="-0.76012">
        <ele>3.33203</ele>
        <time>2022-04-29T10:28:46.000Z</time>
      </trkpt>
      <trkpt lat="37.79398" lon="-0.75978">
        <ele>3.437245</ele>
        <time>2022-04-29T10:28:55.000Z</time>
      </trkpt>
      <trkpt lat="37.79393" lon="-0.75962">
        <ele>3.487819</ele>
        <time>2022-04-29T10:29:00.000Z</time>
      </trkpt>
      <trkpt lat="37.7939" lon="-0.75948">
        <ele>3.528523</ele>
        <time>2022-04-29T10:29:04.000Z</time>
      </trkpt>
      <trkpt lat="37.79381" lon="-0.75916">
        <ele>3.462036</ele>
        <time>2022-04-29T10:29:13.000Z</time>
      </trkpt>
      <trkpt lat="37.79373" lon="-0.75888">
        <ele>3.339199</ele>
        <time>2022-04-29T10:29:21.000Z</time>
      </trkpt>
      <trkpt lat="37.79363" lon="-0.75856">
        <ele>3.201565</ele>
        <time>2022-04-29T10:29:30.000Z</time>
      </trkpt>
      <trkpt lat="37.79356" lon="-0.75831">
        <ele>3.094035</ele>
        <time>2022-04-29T10:29:37.000Z</time>
      </trkpt>
      <trkpt lat="37.79355" lon="-0.75827">
        <ele>3.07535</ele>
        <time>2022-04-29T10:29:38.000Z</time>
      </trkpt>
      <trkpt lat="37.79342" lon="-0.75782">
        <ele>2.883708</ele>
        <time>2022-04-29T10:29:50.000Z</time>
      </trkpt>
      <trkpt lat="37.79338" lon="-0.75767">
        <ele>2.817434</ele>
        <time>2022-04-29T10:29:54.000Z</time>
      </trkpt>
      <trkpt lat="37.79335" lon="-0.75755">
        <ele>2.768238</ele>
        <time>2022-04-29T10:29:57.000Z</time>
      </trkpt>
      <trkpt lat="37.7933" lon="-0.7574">
        <ele>2.700078</ele>
        <time>2022-04-29T10:30:01.000Z</time>
      </trkpt>
      <trkpt lat="37.79326" lon="-0.7573">
        <ele>2.656832</ele>
        <time>2022-04-29T10:30:04.000Z</time>
      </trkpt>
      <trkpt lat="37.79318" lon="-0.75704">
        <ele>2.589325</ele>
        <time>2022-04-29T10:30:11.000Z</time>
      </trkpt>
      <trkpt lat="37.79307" lon="-0.75661">
        <ele>2.496185</ele>
        <time>2022-04-29T10:30:22.000Z</time>
      </trkpt>
      <trkpt lat="37.79298" lon="-0.75629">
        <ele>2.423208</ele>
        <time>2022-04-29T10:30:30.000Z</time>
      </trkpt>
      <trkpt lat="37.79297" lon="-0.75624">
        <ele>2.41411</ele>
        <time>2022-04-29T10:30:31.000Z</time>
      </trkpt>
      <trkpt lat="37.79294" lon="-0.75611">
        <ele>2.38573</ele>
        <time>2022-04-29T10:30:34.000Z</time>
      </trkpt>
      <trkpt lat="37.79288" lon="-0.75588">
        <ele>2.334143</ele>
        <time>2022-04-29T10:30:39.000Z</time>
      </trkpt>
      <trkpt lat="37.79287" lon="-0.75584">
        <ele>2.325889</ele>
        <time>2022-04-29T10:30:40.000Z</time>
      </trkpt>
      <trkpt lat="37.79284" lon="-0.75574">
        <ele>2.303242</ele>
        <time>2022-04-29T10:30:42.000Z</time>
      </trkpt>
      <trkpt lat="37.79283" lon="-0.7557">
        <ele>2.29521</ele>
        <time>2022-04-29T10:30:43.000Z</time>
      </trkpt>
      <trkpt lat="37.79279" lon="-0.75557">
        <ele>2.265674</ele>
        <time>2022-04-29T10:30:46.000Z</time>
      </trkpt>
      <trkpt lat="37.79273" lon="-0.75534">
        <ele>2.21674</ele>
        <time>2022-04-29T10:30:51.000Z</time>
      </trkpt>
      <trkpt lat="37.79257" lon="-0.75485">
        <ele>2.110326</ele>
        <time>2022-04-29T10:31:02.000Z</time>
      </trkpt>
      <trkpt lat="37.79252" lon="-0.75463">
        <ele>2.065887</ele>
        <time>2022-04-29T10:31:07.000Z</time>
      </trkpt>
      <trkpt lat="37.79244" lon="-0.75435">
        <ele>2.010051</ele>
        <time>2022-04-29T10:31:13.000Z</time>
      </trkpt>
      <trkpt lat="37.7924" lon="-0.75422">
        <ele>1.983053</ele>
        <time>2022-04-29T10:31:16.000Z</time>
      </trkpt>
      <trkpt lat="37.79233" lon="-0.75396">
        <ele>1.930139</ele>
        <time>2022-04-29T10:31:22.000Z</time>
      </trkpt>
      <trkpt lat="37.79227" lon="-0.75362">
        <ele>1.863923</ele>
        <time>2022-04-29T10:31:30.000Z</time>
      </trkpt>
      <trkpt lat="37.79226" lon="-0.75358">
        <ele>1.854749</ele>
        <time>2022-04-29T10:31:32.000Z</time>
      </trkpt>
      <trkpt lat="37.79226" lon="-0.75357">
        <ele>1.853245</ele>
        <time>2022-04-29T10:31:34.000Z</time>
      </trkpt>
      <trkpt lat="37.79227" lon="-0.75359">
        <ele>1.848983</ele>
        <time>2022-04-29T10:31:51.000Z</time>
      </trkpt>
      <trkpt lat="37.79227" lon="-0.75359">
        <ele>1.848256</ele>
        <time>2022-04-29T10:32:04.000Z</time>
      </trkpt>
      <trkpt lat="37.79228" lon="-0.75358">
        <ele>1.844263</ele>
        <time>2022-04-29T10:32:05.000Z</time>
      </trkpt>
      <trkpt lat="37.79232" lon="-0.75358">
        <ele>1.833732</ele>
        <time>2022-04-29T10:32:07.000Z</time>
      </trkpt>
      <trkpt lat="37.79234" lon="-0.75363">
        <ele>1.823559</ele>
        <time>2022-04-29T10:32:09.000Z</time>
      </trkpt>
      <trkpt lat="37.79233" lon="-0.7538">
        <ele>1.790326</ele>
        <time>2022-04-29T10:32:16.000Z</time>
      </trkpt>
      <trkpt lat="37.79232" lon="-0.7538">
        <ele>1.788378</ele>
        <time>2022-04-29T10:32:21.000Z</time>
      </trkpt>
      <trkpt lat="37.79231" lon="-0.75383">
        <ele>1.782389</ele>
        <time>2022-04-29T10:32:33.000Z</time>
      </trkpt>
      <trkpt lat="37.79231" lon="-0.75386">
        <ele>1.777578</ele>
        <time>2022-04-29T10:32:34.000Z</time>
      </trkpt>
      <trkpt lat="37.79233" lon="-0.75394">
        <ele>1.760412</ele>
        <time>2022-04-29T10:32:37.000Z</time>
      </trkpt>
      <trkpt lat="37.79233" lon="-0.75402">
        <ele>1.745469</ele>
        <time>2022-04-29T10:32:39.000Z</time>
      </trkpt>
      <trkpt lat="37.79235" lon="-0.7541">
        <ele>1.729483</ele>
        <time>2022-04-29T10:32:41.000Z</time>
      </trkpt>
      <trkpt lat="37.79239" lon="-0.75425">
        <ele>1.740338</ele>
        <time>2022-04-29T10:32:45.000Z</time>
      </trkpt>
      <trkpt lat="37.79242" lon="-0.75432">
        <ele>1.747703</ele>
        <time>2022-04-29T10:32:47.000Z</time>
      </trkpt>
      <trkpt lat="37.79244" lon="-0.75439">
        <ele>1.75416</ele>
        <time>2022-04-29T10:32:49.000Z</time>
      </trkpt>
      <trkpt lat="37.79246" lon="-0.75445">
        <ele>1.761092</ele>
        <time>2022-04-29T10:32:51.000Z</time>
      </trkpt>
      <trkpt lat="37.79249" lon="-0.75454">
        <ele>1.770003</ele>
        <time>2022-04-29T10:32:53.000Z</time>
      </trkpt>
      <trkpt lat="37.79257" lon="-0.75485">
        <ele>1.799914</ele>
        <time>2022-04-29T10:33:00.000Z</time>
      </trkpt>
      <trkpt lat="37.79258" lon="-0.7549">
        <ele>1.804699</ele>
        <time>2022-04-29T10:33:01.000Z</time>
      </trkpt>
      <trkpt lat="37.79269" lon="-0.75524">
        <ele>1.838321</ele>
        <time>2022-04-29T10:33:09.000Z</time>
      </trkpt>
      <trkpt lat="37.79272" lon="-0.75532">
        <ele>1.8465</ele>
        <time>2022-04-29T10:33:11.000Z</time>
      </trkpt>
      <trkpt lat="37.79273" lon="-0.75542">
        <ele>1.855972</ele>
        <time>2022-04-29T10:33:15.000Z</time>
      </trkpt>
      <trkpt lat="37.79272" lon="-0.75542">
        <ele>1.856914</ele>
        <time>2022-04-29T10:33:19.000Z</time>
      </trkpt>
      <trkpt lat="37.79272" lon="-0.75541">
        <ele>1.857779</ele>
        <time>2022-04-29T10:33:27.000Z</time>
      </trkpt>
      <trkpt lat="37.79272" lon="-0.75541">
        <ele>1.857779</ele>
        <time>2022-04-29T10:33:34.000Z</time>
      </trkpt>
      <trkpt lat="37.79276" lon="-0.7555">
        <ele>1.866544</ele>
        <time>2022-04-29T10:33:57.000Z</time>
      </trkpt>
      <trkpt lat="37.7928" lon="-0.75565">
        <ele>1.881871</ele>
        <time>2022-04-29T10:34:01.000Z</time>
      </trkpt>
      <trkpt lat="37.79282" lon="-0.7557">
        <ele>1.886132</ele>
        <time>2022-04-29T10:34:02.000Z</time>
      </trkpt>
      <trkpt lat="37.79283" lon="-0.75578">
        <ele>1.893744</ele>
        <time>2022-04-29T10:34:06.000Z</time>
      </trkpt>
      <trkpt lat="37.79282" lon="-0.75579">
        <ele>1.895061</ele>
        <time>2022-04-29T10:34:16.000Z</time>
      </trkpt>
      <trkpt lat="37.79282" lon="-0.75578">
        <ele>1.89521</ele>
        <time>2022-04-29T10:34:27.000Z</time>
      </trkpt>
      <trkpt lat="37.79284" lon="-0.7558">
        <ele>1.897548</ele>
        <time>2022-04-29T10:34:31.000Z</time>
      </trkpt>
      <trkpt lat="37.79285" lon="-0.75583">
        <ele>1.900528</ele>
        <time>2022-04-29T10:34:32.000Z</time>
      </trkpt>
      <trkpt lat="37.79293" lon="-0.75605">
        <ele>1.923133</ele>
        <time>2022-04-29T10:34:38.000Z</time>
      </trkpt>
      <trkpt lat="37.79297" lon="-0.75622">
        <ele>1.9451</ele>
        <time>2022-04-29T10:34:42.000Z</time>
      </trkpt>
      <trkpt lat="37.79301" lon="-0.7564">
        <ele>2.04859</ele>
        <time>2022-04-29T10:34:46.000Z</time>
      </trkpt>
      <trkpt lat="37.79313" lon="-0.75678">
        <ele>2.274172</ele>
        <time>2022-04-29T10:34:54.000Z</time>
      </trkpt>
      <trkpt lat="37.79326" lon="-0.75724">
        <ele>2.542887</ele>
        <time>2022-04-29T10:35:03.000Z</time>
      </trkpt>
      <trkpt lat="37.79331" lon="-0.75741">
        <ele>2.643547</ele>
        <time>2022-04-29T10:35:08.000Z</time>
      </trkpt>
      <trkpt lat="37.7934" lon="-0.75768">
        <ele>2.803815</ele>
        <time>2022-04-29T10:35:16.000Z</time>
      </trkpt>
      <trkpt lat="37.79342" lon="-0.75776">
        <ele>2.851379</ele>
        <time>2022-04-29T10:35:18.000Z</time>
      </trkpt>
      <trkpt lat="37.79347" lon="-0.75793">
        <ele>2.948195</ele>
        <time>2022-04-29T10:35:22.000Z</time>
      </trkpt>
      <trkpt lat="37.7935" lon="-0.75801">
        <ele>2.996471</ele>
        <time>2022-04-29T10:35:24.000Z</time>
      </trkpt>
      <trkpt lat="37.79357" lon="-0.75829">
        <ele>3.158044</ele>
        <time>2022-04-29T10:35:30.000Z</time>
      </trkpt>
      <trkpt lat="37.79362" lon="-0.75843">
        <ele>3.228784</ele>
        <time>2022-04-29T10:35:33.000Z</time>
      </trkpt>
      <trkpt lat="37.79369" lon="-0.75867">
        <ele>3.327231</ele>
        <time>2022-04-29T10:35:38.000Z</time>
      </trkpt>
      <trkpt lat="37.79375" lon="-0.75886">
        <ele>3.408002</ele>
        <time>2022-04-29T10:35:42.000Z</time>
      </trkpt>
      <trkpt lat="37.79378" lon="-0.75896">
        <ele>3.450034</ele>
        <time>2022-04-29T10:35:44.000Z</time>
      </trkpt>
      <trkpt lat="37.79382" lon="-0.75911">
        <ele>3.513952</ele>
        <time>2022-04-29T10:35:47.000Z</time>
      </trkpt>
      <trkpt lat="37.79386" lon="-0.75927">
        <ele>3.576335</ele>
        <time>2022-04-29T10:35:50.000Z</time>
      </trkpt>
      <trkpt lat="37.79393" lon="-0.7595">
        <ele>3.67498</ele>
        <time>2022-04-29T10:35:55.000Z</time>
      </trkpt>
      <trkpt lat="37.79396" lon="-0.75963">
        <ele>3.728008</ele>
        <time>2022-04-29T10:35:58.000Z</time>
      </trkpt>
      <trkpt lat="37.79398" lon="-0.75971">
        <ele>3.761271</ele>
        <time>2022-04-29T10:36:00.000Z</time>
      </trkpt>
      <trkpt lat="37.79405" lon="-0.75994">
        <ele>3.859719</ele>
        <time>2022-04-29T10:36:06.000Z</time>
      </trkpt>
      <trkpt lat="37.79407" lon="-0.75999">
        <ele>3.877461</ele>
        <time>2022-04-29T10:36:07.000Z</time>
      </trkpt>
      <trkpt lat="37.79408" lon="-0.76002">
        <ele>3.894142</ele>
        <time>2022-04-29T10:36:08.000Z</time>
      </trkpt>
      <trkpt lat="37.79412" lon="-0.76015">
        <ele>3.946387</ele>
        <time>2022-04-29T10:36:11.000Z</time>
      </trkpt>
      <trkpt lat="37.79415" lon="-0.76027">
        <ele>3.998671</ele>
        <time>2022-04-29T10:36:14.000Z</time>
      </trkpt>
      <trkpt lat="37.79419" lon="-0.7604">
        <ele>4.052366</ele>
        <time>2022-04-29T10:36:17.000Z</time>
      </trkpt>
      <trkpt lat="37.79424" lon="-0.76059">
        <ele>4.009553</ele>
        <time>2022-04-29T10:36:21.000Z</time>
      </trkpt>
      <trkpt lat="37.79428" lon="-0.76068">
        <ele>3.949463</ele>
        <time>2022-04-29T10:36:23.000Z</time>
      </trkpt>
      <trkpt lat="37.79437" lon="-0.76093">
        <ele>3.784274</ele>
        <time>2022-04-29T10:36:30.000Z</time>
      </trkpt>
      <trkpt lat="37.79451" lon="-0.76106">
        <ele>3.649314</ele>
        <time>2022-04-29T10:36:36.000Z</time>
      </trkpt>
      <trkpt lat="37.7946" lon="-0.76113">
        <ele>3.569304</ele>
        <time>2022-04-29T10:36:39.000Z</time>
      </trkpt>
      <trkpt lat="37.79463" lon="-0.76116">
        <ele>3.542349</ele>
        <time>2022-04-29T10:36:40.000Z</time>
      </trkpt>
      <trkpt lat="37.79476" lon="-0.76122">
        <ele>3.43875</ele>
        <time>2022-04-29T10:36:44.000Z</time>
      </trkpt>
      <trkpt lat="37.79491" lon="-0.76125">
        <ele>3.321586</ele>
        <time>2022-04-29T10:36:49.000Z</time>
      </trkpt>
      <trkpt lat="37.79517" lon="-0.76123">
        <ele>3.122372</ele>
        <time>2022-04-29T10:36:58.000Z</time>
      </trkpt>
      <trkpt lat="37.79533" lon="-0.76123">
        <ele>3.000074</ele>
        <time>2022-04-29T10:37:03.000Z</time>
      </trkpt>
      <trkpt lat="37.79543" lon="-0.76124">
        <ele>2.926395</ele>
        <time>2022-04-29T10:37:06.000Z</time>
      </trkpt>
      <trkpt lat="37.79546" lon="-0.76123">
        <ele>2.901826</ele>
        <time>2022-04-29T10:37:07.000Z</time>
      </trkpt>
      <trkpt lat="37.79563" lon="-0.7612">
        <ele>2.769962</ele>
        <time>2022-04-29T10:37:12.000Z</time>
      </trkpt>
      <trkpt lat="37.79592" lon="-0.76121">
        <ele>2.743476</ele>
        <time>2022-04-29T10:37:21.000Z</time>
      </trkpt>
      <trkpt lat="37.79627" lon="-0.76121">
        <ele>2.787455</ele>
        <time>2022-04-29T10:37:32.000Z</time>
      </trkpt>
      <trkpt lat="37.79634" lon="-0.76121">
        <ele>2.795396</ele>
        <time>2022-04-29T10:37:34.000Z</time>
      </trkpt>
      <trkpt lat="37.79656" lon="-0.7612">
        <ele>2.824141</ele>
        <time>2022-04-29T10:37:41.000Z</time>
      </trkpt>
      <trkpt lat="37.79695" lon="-0.76121">
        <ele>2.872666</ele>
        <time>2022-04-29T10:37:53.000Z</time>
      </trkpt>
      <trkpt lat="37.79716" lon="-0.7612">
        <ele>2.899513</ele>
        <time>2022-04-29T10:37:59.000Z</time>
      </trkpt>
      <trkpt lat="37.79726" lon="-0.7612">
        <ele>2.911992</ele>
        <time>2022-04-29T10:38:02.000Z</time>
      </trkpt>
      <trkpt lat="37.79756" lon="-0.7612">
        <ele>2.942381</ele>
        <time>2022-04-29T10:38:11.000Z</time>
      </trkpt>
      <trkpt lat="37.79784" lon="-0.7612">
        <ele>2.94155</ele>
        <time>2022-04-29T10:38:19.000Z</time>
      </trkpt>
      <trkpt lat="37.79821" lon="-0.7612">
        <ele>2.940487</ele>
        <time>2022-04-29T10:38:29.000Z</time>
      </trkpt>
      <trkpt lat="37.79841" lon="-0.76119">
        <ele>2.939876</ele>
        <time>2022-04-29T10:38:35.000Z</time>
      </trkpt>
      <trkpt lat="37.79844" lon="-0.76118">
        <ele>2.939798</ele>
        <time>2022-04-29T10:38:37.000Z</time>
      </trkpt>
      <trkpt lat="37.79844" lon="-0.76119">
        <ele>2.939785</ele>
        <time>2022-04-29T10:38:41.000Z</time>
      </trkpt>
      <trkpt lat="37.79843" lon="-0.7612">
        <ele>2.939742</ele>
        <time>2022-04-29T10:38:45.000Z</time>
      </trkpt>
      <trkpt lat="37.79843" lon="-0.7612">
        <ele>2.939734</ele>
        <time>2022-04-29T10:38:54.000Z</time>
      </trkpt>
      <trkpt lat="37.79843" lon="-0.7612">
        <ele>2.939734</ele>
        <time>2022-04-29T10:38:55.000Z</time>
      </trkpt>
      <trkpt lat="37.79843" lon="-0.7612">
        <ele>2.939724</ele>
        <time>2022-04-29T10:39:01.000Z</time>
      </trkpt>
      <trkpt lat="37.79848" lon="-0.76121">
        <ele>2.939574</ele>
        <time>2022-04-29T10:39:03.000Z</time>
      </trkpt>
      <trkpt lat="37.7985" lon="-0.76121">
        <ele>2.939505</ele>
        <time>2022-04-29T10:39:04.000Z</time>
      </trkpt>
      <trkpt lat="37.79864" lon="-0.76126">
        <ele>2.939103</ele>
        <time>2022-04-29T10:39:10.000Z</time>
      </trkpt>
      <trkpt lat="37.79875" lon="-0.76124">
        <ele>2.938775</ele>
        <time>2022-04-29T10:39:15.000Z</time>
      </trkpt>
      <trkpt lat="37.79882" lon="-0.76124">
        <ele>2.938555</ele>
        <time>2022-04-29T10:39:18.000Z</time>
      </trkpt>
      <trkpt lat="37.79888" lon="-0.76124">
        <ele>2.938389</ele>
        <time>2022-04-29T10:39:20.000Z</time>
      </trkpt>
      <trkpt lat="37.79896" lon="-0.76124">
        <ele>2.938148</ele>
        <time>2022-04-29T10:39:25.000Z</time>
      </trkpt>
      <trkpt lat="37.79895" lon="-0.76124">
        <ele>2.938125</ele>
        <time>2022-04-29T10:39:34.000Z</time>
      </trkpt>
      <trkpt lat="37.79895" lon="-0.76123">
        <ele>2.938119</ele>
        <time>2022-04-29T10:39:38.000Z</time>
      </trkpt>
      <trkpt lat="37.79895" lon="-0.76124">
        <ele>2.93811</ele>
        <time>2022-04-29T10:39:50.000Z</time>
      </trkpt>
      <trkpt lat="37.79895" lon="-0.76124">
        <ele>2.9381</ele>
        <time>2022-04-29T10:39:51.000Z</time>
      </trkpt>
      <trkpt lat="37.799" lon="-0.76129">
        <ele>2.937918</ele>
        <time>2022-04-29T10:39:54.000Z</time>
      </trkpt>
      <trkpt lat="37.79917" lon="-0.76138">
        <ele>2.937385</ele>
        <time>2022-04-29T10:40:00.000Z</time>
      </trkpt>
      <trkpt lat="37.79919" lon="-0.7614">
        <ele>2.937307</ele>
        <time>2022-04-29T10:40:01.000Z</time>
      </trkpt>
      <trkpt lat="37.79934" lon="-0.76151">
        <ele>3.013865</ele>
        <time>2022-04-29T10:40:07.000Z</time>
      </trkpt>
      <trkpt lat="37.79955" lon="-0.76162">
        <ele>3.124291</ele>
        <time>2022-04-29T10:40:14.000Z</time>
      </trkpt>
      <trkpt lat="37.79967" lon="-0.76169">
        <ele>3.191359</ele>
        <time>2022-04-29T10:40:18.000Z</time>
      </trkpt>
      <trkpt lat="37.7998" lon="-0.76178">
        <ele>3.263687</ele>
        <time>2022-04-29T10:40:22.000Z</time>
      </trkpt>
      <trkpt lat="37.79995" lon="-0.76189">
        <ele>3.348145</ele>
        <time>2022-04-29T10:40:27.000Z</time>
      </trkpt>
      <trkpt lat="37.80034" lon="-0.76216">
        <ele>3.562153</ele>
        <time>2022-04-29T10:40:38.000Z</time>
      </trkpt>
      <trkpt lat="37.80055" lon="-0.76231">
        <ele>3.680856</ele>
        <time>2022-04-29T10:40:44.000Z</time>
      </trkpt>
      <trkpt lat="37.80062" lon="-0.76237">
        <ele>3.721411</ele>
        <time>2022-04-29T10:40:46.000Z</time>
      </trkpt>
      <trkpt lat="37.80091" lon="-0.76258">
        <ele>3.768759</ele>
        <time>2022-04-29T10:40:54.000Z</time>
      </trkpt>
      <trkpt lat="37.80097" lon="-0.76262">
        <ele>3.745173</ele>
        <time>2022-04-29T10:40:56.000Z</time>
      </trkpt>
      <trkpt lat="37.8011" lon="-0.76271">
        <ele>3.698431</ele>
        <time>2022-04-29T10:41:00.000Z</time>
      </trkpt>
      <trkpt lat="37.8012" lon="-0.76277">
        <ele>3.664543</ele>
        <time>2022-04-29T10:41:03.000Z</time>
      </trkpt>
      <trkpt lat="37.80135" lon="-0.7629">
        <ele>3.607477</ele>
        <time>2022-04-29T10:41:09.000Z</time>
      </trkpt>
      <trkpt lat="37.80154" lon="-0.76301">
        <ele>3.540841</ele>
        <time>2022-04-29T10:41:15.000Z</time>
      </trkpt>
      <trkpt lat="37.80161" lon="-0.76306">
        <ele>3.514362</ele>
        <time>2022-04-29T10:41:17.000Z</time>
      </trkpt>
      <trkpt lat="37.80182" lon="-0.76319">
        <ele>3.440184</ele>
        <time>2022-04-29T10:41:23.000Z</time>
      </trkpt>
      <trkpt lat="37.80197" lon="-0.7633">
        <ele>3.38642</ele>
        <time>2022-04-29T10:41:27.000Z</time>
      </trkpt>
      <trkpt lat="37.80201" lon="-0.76333">
        <ele>3.37222</ele>
        <time>2022-04-29T10:41:28.000Z</time>
      </trkpt>
      <trkpt lat="37.80216" lon="-0.76346">
        <ele>3.314346</ele>
        <time>2022-04-29T10:41:32.000Z</time>
      </trkpt>
      <trkpt lat="37.8022" lon="-0.76348">
        <ele>3.299837</ele>
        <time>2022-04-29T10:41:33.000Z</time>
      </trkpt>
      <trkpt lat="37.80255" lon="-0.76371">
        <ele>3.247778</ele>
        <time>2022-04-29T10:41:42.000Z</time>
      </trkpt>
      <trkpt lat="37.80275" lon="-0.76384">
        <ele>3.252551</ele>
        <time>2022-04-29T10:41:47.000Z</time>
      </trkpt>
      <trkpt lat="37.80284" lon="-0.76392">
        <ele>3.255013</ele>
        <time>2022-04-29T10:41:50.000Z</time>
      </trkpt>
      <trkpt lat="37.8032" lon="-0.76418">
        <ele>3.263815</ele>
        <time>2022-04-29T10:42:00.000Z</time>
      </trkpt>
      <trkpt lat="37.80349" lon="-0.76436">
        <ele>3.270644</ele>
        <time>2022-04-29T10:42:07.000Z</time>
      </trkpt>
      <trkpt lat="37.80371" lon="-0.76453">
        <ele>3.276073</ele>
        <time>2022-04-29T10:42:13.000Z</time>
      </trkpt>
      <trkpt lat="37.80387" lon="-0.76463">
        <ele>3.279856</ele>
        <time>2022-04-29T10:42:17.000Z</time>
      </trkpt>
      <trkpt lat="37.8043" lon="-0.76494">
        <ele>3.473094</ele>
        <time>2022-04-29T10:42:28.000Z</time>
      </trkpt>
      <trkpt lat="37.80455" lon="-0.76511">
        <ele>3.598885</ele>
        <time>2022-04-29T10:42:34.000Z</time>
      </trkpt>
      <trkpt lat="37.8047" lon="-0.76522">
        <ele>3.678788</ele>
        <time>2022-04-29T10:42:38.000Z</time>
      </trkpt>
      <trkpt lat="37.80475" lon="-0.76525">
        <ele>3.703022</ele>
        <time>2022-04-29T10:42:39.000Z</time>
      </trkpt>
      <trkpt lat="37.80478" lon="-0.76527">
        <ele>3.719558</ele>
        <time>2022-04-29T10:42:40.000Z</time>
      </trkpt>
      <trkpt lat="37.80501" lon="-0.76544">
        <ele>3.840868</ele>
        <time>2022-04-29T10:42:46.000Z</time>
      </trkpt>
      <trkpt lat="37.80505" lon="-0.76548">
        <ele>3.861795</ele>
        <time>2022-04-29T10:42:47.000Z</time>
      </trkpt>
      <trkpt lat="37.80509" lon="-0.76551">
        <ele>3.885609</ele>
        <time>2022-04-29T10:42:48.000Z</time>
      </trkpt>
      <trkpt lat="37.80535" lon="-0.76569">
        <ele>4.017959</ele>
        <time>2022-04-29T10:42:55.000Z</time>
      </trkpt>
      <trkpt lat="37.80566" lon="-0.7659">
        <ele>4.084963</ele>
        <time>2022-04-29T10:43:03.000Z</time>
      </trkpt>
      <trkpt lat="37.80589" lon="-0.76607">
        <ele>4.06592</ele>
        <time>2022-04-29T10:43:09.000Z</time>
      </trkpt>
      <trkpt lat="37.80604" lon="-0.76617">
        <ele>4.053439</ele>
        <time>2022-04-29T10:43:13.000Z</time>
      </trkpt>
      <trkpt lat="37.80611" lon="-0.76623">
        <ele>4.047371</ele>
        <time>2022-04-29T10:43:15.000Z</time>
      </trkpt>
      <trkpt lat="37.80644" lon="-0.76646">
        <ele>4.019961</ele>
        <time>2022-04-29T10:43:24.000Z</time>
      </trkpt>
      <trkpt lat="37.80688" lon="-0.76675">
        <ele>3.98331</ele>
        <time>2022-04-29T10:43:36.000Z</time>
      </trkpt>
      <trkpt lat="37.80696" lon="-0.76681">
        <ele>3.97696</ele>
        <time>2022-04-29T10:43:38.000Z</time>
      </trkpt>
      <trkpt lat="37.80703" lon="-0.76688">
        <ele>3.970391</ele>
        <time>2022-04-29T10:43:40.000Z</time>
      </trkpt>
      <trkpt lat="37.80707" lon="-0.7669">
        <ele>3.967415</ele>
        <time>2022-04-29T10:43:41.000Z</time>
      </trkpt>
      <trkpt lat="37.80737" lon="-0.76711">
        <ele>4.044842</ele>
        <time>2022-04-29T10:43:49.000Z</time>
      </trkpt>
      <trkpt lat="37.80767" lon="-0.7673">
        <ele>4.120496</ele>
        <time>2022-04-29T10:43:57.000Z</time>
      </trkpt>
      <trkpt lat="37.80775" lon="-0.76735">
        <ele>4.139961</ele>
        <time>2022-04-29T10:43:59.000Z</time>
      </trkpt>
      <trkpt lat="37.80797" lon="-0.76752">
        <ele>4.197805</ele>
        <time>2022-04-29T10:44:05.000Z</time>
      </trkpt>
      <trkpt lat="37.80808" lon="-0.7676">
        <ele>4.22702</ele>
        <time>2022-04-29T10:44:08.000Z</time>
      </trkpt>
      <trkpt lat="37.80836" lon="-0.76779">
        <ele>4.298475</ele>
        <time>2022-04-29T10:44:15.000Z</time>
      </trkpt>
      <trkpt lat="37.80859" lon="-0.76795">
        <ele>4.359329</ele>
        <time>2022-04-29T10:44:21.000Z</time>
      </trkpt>
      <trkpt lat="37.80875" lon="-0.76807">
        <ele>4.374287</ele>
        <time>2022-04-29T10:44:25.000Z</time>
      </trkpt>
      <trkpt lat="37.80887" lon="-0.76815">
        <ele>4.37375</ele>
        <time>2022-04-29T10:44:28.000Z</time>
      </trkpt>
      <trkpt lat="37.80907" lon="-0.76829">
        <ele>4.372795</ele>
        <time>2022-04-29T10:44:33.000Z</time>
      </trkpt>
      <trkpt lat="37.80911" lon="-0.76832">
        <ele>4.372598</ele>
        <time>2022-04-29T10:44:34.000Z</time>
      </trkpt>
      <trkpt lat="37.80923" lon="-0.76842">
        <ele>4.371993</ele>
        <time>2022-04-29T10:44:37.000Z</time>
      </trkpt>
      <trkpt lat="37.80967" lon="-0.76871">
        <ele>4.369898</ele>
        <time>2022-04-29T10:44:48.000Z</time>
      </trkpt>
      <trkpt lat="37.80989" lon="-0.76885">
        <ele>4.368872</ele>
        <time>2022-04-29T10:44:53.000Z</time>
      </trkpt>
      <trkpt lat="37.81002" lon="-0.76895">
        <ele>4.368258</ele>
        <time>2022-04-29T10:44:56.000Z</time>
      </trkpt>
      <trkpt lat="37.81019" lon="-0.76907">
        <ele>4.367437</ele>
        <time>2022-04-29T10:45:00.000Z</time>
      </trkpt>
      <trkpt lat="37.81034" lon="-0.7692">
        <ele>4.409776</ele>
        <time>2022-04-29T10:45:04.000Z</time>
      </trkpt>
      <trkpt lat="37.81071" lon="-0.76948">
        <ele>4.536619</ele>
        <time>2022-04-29T10:45:14.000Z</time>
      </trkpt>
      <trkpt lat="37.81107" lon="-0.7697">
        <ele>4.655809</ele>
        <time>2022-04-29T10:45:23.000Z</time>
      </trkpt>
      <trkpt lat="37.81123" lon="-0.76982">
        <ele>4.711239</ele>
        <time>2022-04-29T10:45:28.000Z</time>
      </trkpt>
      <trkpt lat="37.81144" lon="-0.76998">
        <ele>4.783299</ele>
        <time>2022-04-29T10:45:34.000Z</time>
      </trkpt>
      <trkpt lat="37.81158" lon="-0.77008">
        <ele>4.831719</ele>
        <time>2022-04-29T10:45:38.000Z</time>
      </trkpt>
      <trkpt lat="37.81165" lon="-0.77013">
        <ele>4.856841</ele>
        <time>2022-04-29T10:45:40.000Z</time>
      </trkpt>
      <trkpt lat="37.81171" lon="-0.77018">
        <ele>4.878667</ele>
        <time>2022-04-29T10:45:42.000Z</time>
      </trkpt>
      <trkpt lat="37.81194" lon="-0.77037">
        <ele>4.889292</ele>
        <time>2022-04-29T10:45:48.000Z</time>
      </trkpt>
      <trkpt lat="37.812" lon="-0.77044">
        <ele>4.884132</ele>
        <time>2022-04-29T10:45:50.000Z</time>
      </trkpt>
      <trkpt lat="37.81218" lon="-0.77058">
        <ele>4.871359</ele>
        <time>2022-04-29T10:45:55.000Z</time>
      </trkpt>
      <trkpt lat="37.81243" lon="-0.77067">
        <ele>4.85545</ele>
        <time>2022-04-29T10:46:01.000Z</time>
      </trkpt>
      <trkpt lat="37.81246" lon="-0.77069">
        <ele>4.852897</ele>
        <time>2022-04-29T10:46:02.000Z</time>
      </trkpt>
      <trkpt lat="37.8125" lon="-0.77071">
        <ele>4.850722</ele>
        <time>2022-04-29T10:46:03.000Z</time>
      </trkpt>
      <trkpt lat="37.81259" lon="-0.77076">
        <ele>4.844646</ele>
        <time>2022-04-29T10:46:06.000Z</time>
      </trkpt>
      <trkpt lat="37.81288" lon="-0.77096">
        <ele>4.824291</ele>
        <time>2022-04-29T10:46:14.000Z</time>
      </trkpt>
      <trkpt lat="37.8132" lon="-0.77119">
        <ele>4.801238</ele>
        <time>2022-04-29T10:46:22.000Z</time>
      </trkpt>
      <trkpt lat="37.81358" lon="-0.77145">
        <ele>4.780499</ele>
        <time>2022-04-29T10:46:31.000Z</time>
      </trkpt>
      <trkpt lat="37.81401" lon="-0.77174">
        <ele>4.761799</ele>
        <time>2022-04-29T10:46:41.000Z</time>
      </trkpt>
      <trkpt lat="37.81429" lon="-0.77195">
        <ele>4.749188</ele>
        <time>2022-04-29T10:46:48.000Z</time>
      </trkpt>
      <trkpt lat="37.81459" lon="-0.77216">
        <ele>4.735653</ele>
        <time>2022-04-29T10:46:56.000Z</time>
      </trkpt>
      <trkpt lat="37.81475" lon="-0.77227">
        <ele>4.728913</ele>
        <time>2022-04-29T10:47:00.000Z</time>
      </trkpt>
      <trkpt lat="37.81496" lon="-0.77242">
        <ele>4.747577</ele>
        <time>2022-04-29T10:47:06.000Z</time>
      </trkpt>
      <trkpt lat="37.81516" lon="-0.77257">
        <ele>4.957037</ele>
        <time>2022-04-29T10:47:12.000Z</time>
      </trkpt>
      <trkpt lat="37.81524" lon="-0.77263">
        <ele>5.040119</ele>
        <time>2022-04-29T10:47:14.000Z</time>
      </trkpt>
      <trkpt lat="37.81539" lon="-0.77272">
        <ele>5.186851</ele>
        <time>2022-04-29T10:47:18.000Z</time>
      </trkpt>
      <trkpt lat="37.8155" lon="-0.77281">
        <ele>5.303352</ele>
        <time>2022-04-29T10:47:21.000Z</time>
      </trkpt>
      <trkpt lat="37.81558" lon="-0.77286">
        <ele>5.378385</ele>
        <time>2022-04-29T10:47:23.000Z</time>
      </trkpt>
      <trkpt lat="37.81572" lon="-0.77296">
        <ele>5.521931</ele>
        <time>2022-04-29T10:47:27.000Z</time>
      </trkpt>
      <trkpt lat="37.81577" lon="-0.77301">
        <ele>5.584665</ele>
        <time>2022-04-29T10:47:29.000Z</time>
      </trkpt>
      <trkpt lat="37.81605" lon="-0.7732">
        <ele>5.862641</ele>
        <time>2022-04-29T10:47:37.000Z</time>
      </trkpt>
      <trkpt lat="37.81608" lon="-0.77322">
        <ele>5.891223</ele>
        <time>2022-04-29T10:47:38.000Z</time>
      </trkpt>
      <trkpt lat="37.81625" lon="-0.77338">
        <ele>6.081243</ele>
        <time>2022-04-29T10:47:44.000Z</time>
      </trkpt>
      <trkpt lat="37.81626" lon="-0.77339">
        <ele>6.094416</ele>
        <time>2022-04-29T10:47:45.000Z</time>
      </trkpt>
      <trkpt lat="37.81627" lon="-0.77339">
        <ele>6.098549</ele>
        <time>2022-04-29T10:47:46.000Z</time>
      </trkpt>
      <trkpt lat="37.81627" lon="-0.77339">
        <ele>6.098549</ele>
        <time>2022-04-29T10:47:47.000Z</time>
      </trkpt>
      <trkpt lat="37.81627" lon="-0.77339">
        <ele>6.098549</ele>
        <time>2022-04-29T10:47:51.000Z</time>
      </trkpt>
      <trkpt lat="37.81627" lon="-0.77339">
        <ele>6.098549</ele>
        <time>2022-04-29T10:47:53.000Z</time>
      </trkpt>
      <trkpt lat="37.81627" lon="-0.77339">
        <ele>6.098549</ele>
        <time>2022-04-29T10:47:56.000Z</time>
      </trkpt>
      <trkpt lat="37.81627" lon="-0.77339">
        <ele>6.098549</ele>
        <time>2022-04-29T10:48:03.000Z</time>
      </trkpt>
      <trkpt lat="37.81627" lon="-0.77339">
        <ele>6.098549</ele>
        <time>2022-04-29T10:48:05.000Z</time>
      </trkpt>
      <trkpt lat="37.81627" lon="-0.77339">
        <ele>6.098549</ele>
        <time>2022-04-29T10:48:09.000Z</time>
      </trkpt>
      <trkpt lat="37.81627" lon="-0.77339">
        <ele>6.098549</ele>
        <time>2022-04-29T10:48:14.000Z</time>
      </trkpt>
      <trkpt lat="37.81627" lon="-0.77339">
        <ele>6.098549</ele>
        <time>2022-04-29T10:48:18.000Z</time>
      </trkpt>
      <trkpt lat="37.81627" lon="-0.77339">
        <ele>6.098549</ele>
        <time>2022-04-29T10:48:23.000Z</time>
      </trkpt>
      <trkpt lat="37.81628" lon="-0.7734">
        <ele>6.109457</ele>
        <time>2022-04-29T10:48:26.000Z</time>
      </trkpt>
      <trkpt lat="37.81628" lon="-0.7734">
        <ele>6.109457</ele>
        <time>2022-04-29T10:48:42.000Z</time>
      </trkpt>
      <trkpt lat="37.81628" lon="-0.7734">
        <ele>6.109457</ele>
        <time>2022-04-29T10:48:49.000Z</time>
      </trkpt>
      <trkpt lat="37.81628" lon="-0.7734">
        <ele>6.109457</ele>
        <time>2022-04-29T10:49:00.000Z</time>
      </trkpt>
      <trkpt lat="37.81628" lon="-0.7734">
        <ele>6.109457</ele>
        <time>2022-04-29T10:49:11.000Z</time>
      </trkpt>
      <trkpt lat="37.81627" lon="-0.7734">
        <ele>6.112471</ele>
        <time>2022-04-29T10:49:16.000Z</time>
      </trkpt>
      <trkpt lat="37.81627" lon="-0.7734">
        <ele>6.112471</ele>
        <time>2022-04-29T10:49:28.000Z</time>
      </trkpt>
      <trkpt lat="37.81627" lon="-0.7734">
        <ele>6.112471</ele>
        <time>2022-04-29T10:49:42.000Z</time>
      </trkpt>
      <trkpt lat="37.81627" lon="-0.7734">
        <ele>6.112471</ele>
        <time>2022-04-29T10:50:05.000Z</time>
      </trkpt>
      <trkpt lat="37.81627" lon="-0.7734">
        <ele>6.112471</ele>
        <time>2022-04-29T10:50:13.000Z</time>
      </trkpt>
      <trkpt lat="37.81627" lon="-0.7734">
        <ele>6.112471</ele>
        <time>2022-04-29T10:50:14.000Z</time>
      </trkpt>
      <trkpt lat="37.81627" lon="-0.7734">
        <ele>6.112471</ele>
        <time>2022-04-29T10:50:26.000Z</time>
      </trkpt>
      <trkpt lat="37.81627" lon="-0.7734">
        <ele>6.112471</ele>
        <time>2022-04-29T10:50:33.000Z</time>
      </trkpt>
      <trkpt lat="37.81627" lon="-0.7734">
        <ele>6.112471</ele>
        <time>2022-04-29T10:51:00.000Z</time>
      </trkpt>
      <trkpt lat="37.81627" lon="-0.7734">
        <ele>6.113174</ele>
        <time>2022-04-29T10:51:04.000Z</time>
      </trkpt>
      <trkpt lat="37.81627" lon="-0.7734">
        <ele>6.113174</ele>
        <time>2022-04-29T10:51:14.000Z</time>
      </trkpt>
      <trkpt lat="37.81627" lon="-0.7734">
        <ele>6.113174</ele>
        <time>2022-04-29T10:51:15.000Z</time>
      </trkpt>
      <trkpt lat="37.81627" lon="-0.77341">
        <ele>6.118688</ele>
        <time>2022-04-29T10:51:19.000Z</time>
      </trkpt>
      <trkpt lat="37.81627" lon="-0.77341">
        <ele>6.118688</ele>
        <time>2022-04-29T10:51:25.000Z</time>
      </trkpt>
      <trkpt lat="37.81627" lon="-0.77341">
        <ele>6.118688</ele>
        <time>2022-04-29T10:51:28.000Z</time>
      </trkpt>
      <trkpt lat="37.81627" lon="-0.77341">
        <ele>6.118688</ele>
        <time>2022-04-29T10:51:38.000Z</time>
      </trkpt>
      <trkpt lat="37.81627" lon="-0.77341">
        <ele>6.118688</ele>
        <time>2022-04-29T10:51:42.000Z</time>
      </trkpt>
      <trkpt lat="37.81627" lon="-0.77341">
        <ele>6.118688</ele>
        <time>2022-04-29T10:51:43.000Z</time>
      </trkpt>
      <trkpt lat="37.81627" lon="-0.77341">
        <ele>6.118688</ele>
        <time>2022-04-29T10:51:47.000Z</time>
      </trkpt>
      <trkpt lat="37.81627" lon="-0.77341">
        <ele>6.11939</ele>
        <time>2022-04-29T10:51:52.000Z</time>
      </trkpt>
      <trkpt lat="37.81626" lon="-0.77341">
        <ele>6.12596</ele>
        <time>2022-04-29T10:51:56.000Z</time>
      </trkpt>
      <trkpt lat="37.81626" lon="-0.77341">
        <ele>6.12596</ele>
        <time>2022-04-29T10:51:57.000Z</time>
      </trkpt>
      <trkpt lat="37.81627" lon="-0.77341">
        <ele>6.129516</ele>
        <time>2022-04-29T10:52:06.000Z</time>
      </trkpt>
      <trkpt lat="37.81627" lon="-0.77342">
        <ele>6.132325</ele>
        <time>2022-04-29T10:52:25.000Z</time>
      </trkpt>
      <trkpt lat="37.81629" lon="-0.77341">
        <ele>6.154074</ele>
        <time>2022-04-29T10:52:30.000Z</time>
      </trkpt>
      <trkpt lat="37.81634" lon="-0.77343">
        <ele>6.196485</ele>
        <time>2022-04-29T10:52:32.000Z</time>
      </trkpt>
      <trkpt lat="37.81648" lon="-0.7735">
        <ele>6.327798</ele>
        <time>2022-04-29T10:52:37.000Z</time>
      </trkpt>
      <trkpt lat="37.81662" lon="-0.7736">
        <ele>6.420156</ele>
        <time>2022-04-29T10:52:44.000Z</time>
      </trkpt>
      <trkpt lat="37.81671" lon="-0.77363">
        <ele>6.476366</ele>
        <time>2022-04-29T10:52:50.000Z</time>
      </trkpt>
      <trkpt lat="37.81675" lon="-0.77351">
        <ele>6.533419</ele>
        <time>2022-04-29T10:52:56.000Z</time>
      </trkpt>
      <trkpt lat="37.81683" lon="-0.77325">
        <ele>6.661763</ele>
        <time>2022-04-29T10:53:05.000Z</time>
      </trkpt>
      <trkpt lat="37.81688" lon="-0.77306">
        <ele>6.750504</ele>
        <time>2022-04-29T10:53:13.000Z</time>
      </trkpt>
      <trkpt lat="37.81689" lon="-0.77299">
        <ele>6.784615</ele>
        <time>2022-04-29T10:53:19.000Z</time>
      </trkpt>
      <trkpt lat="37.81693" lon="-0.77285">
        <ele>6.854823</ele>
        <time>2022-04-29T10:53:26.000Z</time>
      </trkpt>
      <trkpt lat="37.81696" lon="-0.77277">
        <ele>6.894318</ele>
        <time>2022-04-29T10:53:30.000Z</time>
      </trkpt>
      <trkpt lat="37.81697" lon="-0.77272">
        <ele>6.917705</ele>
        <time>2022-04-29T10:53:32.000Z</time>
      </trkpt>
      <trkpt lat="37.81699" lon="-0.77264">
        <ele>6.955672</ele>
        <time>2022-04-29T10:53:35.000Z</time>
      </trkpt>
      <trkpt lat="37.81702" lon="-0.77252">
        <ele>7.010387</ele>
        <time>2022-04-29T10:53:39.000Z</time>
      </trkpt>
      <trkpt lat="37.81704" lon="-0.77243">
        <ele>7.056919</ele>
        <time>2022-04-29T10:53:42.000Z</time>
      </trkpt>
      <trkpt lat="37.81712" lon="-0.77217">
        <ele>7.18378</ele>
        <time>2022-04-29T10:53:51.000Z</time>
      </trkpt>
      <trkpt lat="37.81715" lon="-0.77206">
        <ele>7.233622</ele>
        <time>2022-04-29T10:53:55.000Z</time>
      </trkpt>
      <trkpt lat="37.81719" lon="-0.77187">
        <ele>7.324475</ele>
        <time>2022-04-29T10:54:03.000Z</time>
      </trkpt>
      <trkpt lat="37.81719" lon="-0.77187">
        <ele>7.324475</ele>
        <time>2022-04-29T10:54:05.000Z</time>
      </trkpt>
      <trkpt lat="37.81719" lon="-0.77187">
        <ele>7.324475</ele>
        <time>2022-04-29T10:54:08.000Z</time>
      </trkpt>
      <trkpt lat="37.81719" lon="-0.77187">
        <ele>7.324475</ele>
        <time>2022-04-29T10:54:28.000Z</time>
      </trkpt>
      <trkpt lat="37.81719" lon="-0.77187">
        <ele>7.325211</ele>
        <time>2022-04-29T10:54:38.000Z</time>
      </trkpt>
      <trkpt lat="37.81719" lon="-0.77188">
        <ele>7.33026</ele>
        <time>2022-04-29T10:54:39.000Z</time>
      </trkpt>
      <trkpt lat="37.81718" lon="-0.77192">
        <ele>7.347916</ele>
        <time>2022-04-29T10:54:44.000Z</time>
      </trkpt>
      <trkpt lat="37.81713" lon="-0.77213">
        <ele>7.285398</ele>
        <time>2022-04-29T10:54:50.000Z</time>
      </trkpt>
      <trkpt lat="37.8171" lon="-0.77227">
        <ele>7.232437</ele>
        <time>2022-04-29T10:54:54.000Z</time>
      </trkpt>
      <trkpt lat="37.81705" lon="-0.77241">
        <ele>7.177086</ele>
        <time>2022-04-29T10:54:59.000Z</time>
      </trkpt>
      <trkpt lat="37.81697" lon="-0.77272">
        <ele>7.060087</ele>
        <time>2022-04-29T10:55:10.000Z</time>
      </trkpt>
      <trkpt lat="37.81693" lon="-0.77285">
        <ele>7.009</ele>
        <time>2022-04-29T10:55:14.000Z</time>
      </trkpt>
      <trkpt lat="37.81689" lon="-0.77302">
        <ele>6.944568</ele>
        <time>2022-04-29T10:55:20.000Z</time>
      </trkpt>
      <trkpt lat="37.81688" lon="-0.77305">
        <ele>6.931014</ele>
        <time>2022-04-29T10:55:21.000Z</time>
      </trkpt>
      <trkpt lat="37.81677" lon="-0.77343">
        <ele>6.785613</ele>
        <time>2022-04-29T10:55:33.000Z</time>
      </trkpt>
      <trkpt lat="37.81675" lon="-0.77349">
        <ele>6.762423</ele>
        <time>2022-04-29T10:55:35.000Z</time>
      </trkpt>
      <trkpt lat="37.81671" lon="-0.77367">
        <ele>6.691905</ele>
        <time>2022-04-29T10:55:42.000Z</time>
      </trkpt>
      <trkpt lat="37.81672" lon="-0.77369">
        <ele>6.683527</ele>
        <time>2022-04-29T10:55:43.000Z</time>
      </trkpt>
      <trkpt lat="37.81681" lon="-0.77377">
        <ele>6.634445</ele>
        <time>2022-04-29T10:55:47.000Z</time>
      </trkpt>
      <trkpt lat="37.81683" lon="-0.77379">
        <ele>6.621206</ele>
        <time>2022-04-29T10:55:48.000Z</time>
      </trkpt>
      <trkpt lat="37.81692" lon="-0.77384">
        <ele>6.579027</ele>
        <time>2022-04-29T10:55:51.000Z</time>
      </trkpt>
      <trkpt lat="37.81713" lon="-0.77399">
        <ele>6.490849</ele>
        <time>2022-04-29T10:55:58.000Z</time>
      </trkpt>
      <trkpt lat="37.81738" lon="-0.77416">
        <ele>6.408931</ele>
        <time>2022-04-29T10:56:06.000Z</time>
      </trkpt>
      <trkpt lat="37.81763" lon="-0.77436">
        <ele>6.322976</ele>
        <time>2022-04-29T10:56:14.000Z</time>
      </trkpt>
      <trkpt lat="37.81781" lon="-0.77445">
        <ele>6.268446</ele>
        <time>2022-04-29T10:56:19.000Z</time>
      </trkpt>
      <trkpt lat="37.81785" lon="-0.77448">
        <ele>6.255541</ele>
        <time>2022-04-29T10:56:20.000Z</time>
      </trkpt>
      <trkpt lat="37.81797" lon="-0.77456">
        <ele>6.216805</ele>
        <time>2022-04-29T10:56:23.000Z</time>
      </trkpt>
      <trkpt lat="37.81804" lon="-0.77461">
        <ele>6.193173</ele>
        <time>2022-04-29T10:56:25.000Z</time>
      </trkpt>
      <trkpt lat="37.81811" lon="-0.77466">
        <ele>6.169288</ele>
        <time>2022-04-29T10:56:27.000Z</time>
      </trkpt>
      <trkpt lat="37.81833" lon="-0.7748">
        <ele>6.098173</ele>
        <time>2022-04-29T10:56:33.000Z</time>
      </trkpt>
      <trkpt lat="37.81855" lon="-0.77496">
        <ele>6.025024</ele>
        <time>2022-04-29T10:56:39.000Z</time>
      </trkpt>
      <trkpt lat="37.81873" lon="-0.77509">
        <ele>6.061702</ele>
        <time>2022-04-29T10:56:44.000Z</time>
      </trkpt>
      <trkpt lat="37.81906" lon="-0.77532">
        <ele>6.178594</ele>
        <time>2022-04-29T10:56:53.000Z</time>
      </trkpt>
      <trkpt lat="37.81946" lon="-0.77559">
        <ele>6.320061</ele>
        <time>2022-04-29T10:57:04.000Z</time>
      </trkpt>
      <trkpt lat="37.81993" lon="-0.77591">
        <ele>6.483757</ele>
        <time>2022-04-29T10:57:17.000Z</time>
      </trkpt>
      <trkpt lat="37.82013" lon="-0.77613">
        <ele>6.566761</ele>
        <time>2022-04-29T10:57:24.000Z</time>
      </trkpt>
      <trkpt lat="37.82019" lon="-0.77619">
        <ele>6.596556</ele>
        <time>2022-04-29T10:57:26.000Z</time>
      </trkpt>
      <trkpt lat="37.82022" lon="-0.77627">
        <ele>6.62886</ele>
        <time>2022-04-29T10:57:28.000Z</time>
      </trkpt>
      <trkpt lat="37.82026" lon="-0.77641">
        <ele>6.678867</ele>
        <time>2022-04-29T10:57:32.000Z</time>
      </trkpt>
      <trkpt lat="37.82034" lon="-0.77639">
        <ele>6.713631</ele>
        <time>2022-04-29T10:57:35.000Z</time>
      </trkpt>
      <trkpt lat="37.82051" lon="-0.7763">
        <ele>6.790292</ele>
        <time>2022-04-29T10:57:41.000Z</time>
      </trkpt>
      <trkpt lat="37.82066" lon="-0.77623">
        <ele>6.856114</ele>
        <time>2022-04-29T10:57:46.000Z</time>
      </trkpt>
      <trkpt lat="37.82079" lon="-0.77616">
        <ele>6.915964</ele>
        <time>2022-04-29T10:57:50.000Z</time>
      </trkpt>
      <trkpt lat="37.82089" lon="-0.77615">
        <ele>6.960951</ele>
        <time>2022-04-29T10:57:53.000Z</time>
      </trkpt>
      <trkpt lat="37.82112" lon="-0.77603">
        <ele>7.065075</ele>
        <time>2022-04-29T10:58:00.000Z</time>
      </trkpt>
      <trkpt lat="37.82129" lon="-0.77596">
        <ele>7.141909</ele>
        <time>2022-04-29T10:58:05.000Z</time>
      </trkpt>
      <trkpt lat="37.82144" lon="-0.77588">
        <ele>7.210396</ele>
        <time>2022-04-29T10:58:09.000Z</time>
      </trkpt>
      <trkpt lat="37.82153" lon="-0.77584">
        <ele>7.248045</ele>
        <time>2022-04-29T10:58:11.000Z</time>
      </trkpt>
      <trkpt lat="37.82186" lon="-0.77567">
        <ele>7.344728</ele>
        <time>2022-04-29T10:58:19.000Z</time>
      </trkpt>
      <trkpt lat="37.82208" lon="-0.7756">
        <ele>7.363462</ele>
        <time>2022-04-29T10:58:24.000Z</time>
      </trkpt>
      <trkpt lat="37.82221" lon="-0.77558">
        <ele>7.374062</ele>
        <time>2022-04-29T10:58:27.000Z</time>
      </trkpt>
      <trkpt lat="37.82229" lon="-0.77557">
        <ele>7.380669</ele>
        <time>2022-04-29T10:58:29.000Z</time>
      </trkpt>
      <trkpt lat="37.82254" lon="-0.77552">
        <ele>7.401564</ele>
        <time>2022-04-29T10:58:35.000Z</time>
      </trkpt>
      <trkpt lat="37.82266" lon="-0.77549">
        <ele>7.411896</ele>
        <time>2022-04-29T10:58:38.000Z</time>
      </trkpt>
      <trkpt lat="37.82293" lon="-0.77544">
        <ele>7.434804</ele>
        <time>2022-04-29T10:58:44.000Z</time>
      </trkpt>
      <trkpt lat="37.82303" lon="-0.77542">
        <ele>7.442497</ele>
        <time>2022-04-29T10:58:46.000Z</time>
      </trkpt>
      <trkpt lat="37.82319" lon="-0.77539">
        <ele>7.456261</ele>
        <time>2022-04-29T10:58:50.000Z</time>
      </trkpt>
      <trkpt lat="37.82341" lon="-0.77534">
        <ele>7.474929</ele>
        <time>2022-04-29T10:58:55.000Z</time>
      </trkpt>
      <trkpt lat="37.82385" lon="-0.77526">
        <ele>7.456639</ele>
        <time>2022-04-29T10:59:04.000Z</time>
      </trkpt>
      <trkpt lat="37.82423" lon="-0.77518">
        <ele>7.433135</ele>
        <time>2022-04-29T10:59:12.000Z</time>
      </trkpt>
      <trkpt lat="37.82441" lon="-0.77516">
        <ele>7.421777</ele>
        <time>2022-04-29T10:59:16.000Z</time>
      </trkpt>
      <trkpt lat="37.82456" lon="-0.77518">
        <ele>7.412759</ele>
        <time>2022-04-29T10:59:19.000Z</time>
      </trkpt>
      <trkpt lat="37.82508" lon="-0.77529">
        <ele>7.380693</ele>
        <time>2022-04-29T10:59:30.000Z</time>
      </trkpt>
      <trkpt lat="37.82539" lon="-0.77538">
        <ele>7.378857</ele>
        <time>2022-04-29T10:59:37.000Z</time>
      </trkpt>
      <trkpt lat="37.82557" lon="-0.77542">
        <ele>7.390179</ele>
        <time>2022-04-29T10:59:41.000Z</time>
      </trkpt>
      <trkpt lat="37.82571" lon="-0.77545">
        <ele>7.399007</ele>
        <time>2022-04-29T10:59:44.000Z</time>
      </trkpt>
      <trkpt lat="37.8258" lon="-0.77547">
        <ele>7.404828</ele>
        <time>2022-04-29T10:59:46.000Z</time>
      </trkpt>
      <trkpt lat="37.82599" lon="-0.77552">
        <ele>7.416661</ele>
        <time>2022-04-29T10:59:50.000Z</time>
      </trkpt>
      <trkpt lat="37.82613" lon="-0.77555">
        <ele>7.425515</ele>
        <time>2022-04-29T10:59:53.000Z</time>
      </trkpt>
      <trkpt lat="37.82643" lon="-0.77562">
        <ele>7.443889</ele>
        <time>2022-04-29T10:59:59.000Z</time>
      </trkpt>
      <trkpt lat="37.82662" lon="-0.77567">
        <ele>7.455749</ele>
        <time>2022-04-29T11:00:03.000Z</time>
      </trkpt>
      <trkpt lat="37.8269" lon="-0.77574">
        <ele>7.473388</ele>
        <time>2022-04-29T11:00:09.000Z</time>
      </trkpt>
      <trkpt lat="37.8273" lon="-0.77585">
        <ele>7.526094</ele>
        <time>2022-04-29T11:00:18.000Z</time>
      </trkpt>
      <trkpt lat="37.82757" lon="-0.77592">
        <ele>7.568618</ele>
        <time>2022-04-29T11:00:24.000Z</time>
      </trkpt>
      <trkpt lat="37.8277" lon="-0.77595">
        <ele>7.58926</ele>
        <time>2022-04-29T11:00:27.000Z</time>
      </trkpt>
      <trkpt lat="37.82783" lon="-0.77598">
        <ele>7.610433</ele>
        <time>2022-04-29T11:00:30.000Z</time>
      </trkpt>
      <trkpt lat="37.82787" lon="-0.776">
        <ele>7.617576</ele>
        <time>2022-04-29T11:00:31.000Z</time>
      </trkpt>
      <trkpt lat="37.82797" lon="-0.77602">
        <ele>7.632279</ele>
        <time>2022-04-29T11:00:33.000Z</time>
      </trkpt>
      <trkpt lat="37.8281" lon="-0.77605">
        <ele>7.652921</ele>
        <time>2022-04-29T11:00:36.000Z</time>
      </trkpt>
      <trkpt lat="37.82823" lon="-0.77608">
        <ele>7.673364</ele>
        <time>2022-04-29T11:00:39.000Z</time>
      </trkpt>
      <trkpt lat="37.82844" lon="-0.77614">
        <ele>7.708064</ele>
        <time>2022-04-29T11:00:44.000Z</time>
      </trkpt>
      <trkpt lat="37.82894" lon="-0.77626">
        <ele>7.773293</ele>
        <time>2022-04-29T11:00:55.000Z</time>
      </trkpt>
      <trkpt lat="37.82943" lon="-0.77637">
        <ele>7.811243</ele>
        <time>2022-04-29T11:01:06.000Z</time>
      </trkpt>
      <trkpt lat="37.82948" lon="-0.77638">
        <ele>7.814867</ele>
        <time>2022-04-29T11:01:07.000Z</time>
      </trkpt>
      <trkpt lat="37.82957" lon="-0.77641">
        <ele>7.822052</ele>
        <time>2022-04-29T11:01:09.000Z</time>
      </trkpt>
      <trkpt lat="37.82983" lon="-0.77648">
        <ele>7.842376</ele>
        <time>2022-04-29T11:01:15.000Z</time>
      </trkpt>
      <trkpt lat="37.82988" lon="-0.77649">
        <ele>7.845717</ele>
        <time>2022-04-29T11:01:16.000Z</time>
      </trkpt>
      <trkpt lat="37.82996" lon="-0.77651">
        <ele>7.852337</ele>
        <time>2022-04-29T11:01:18.000Z</time>
      </trkpt>
      <trkpt lat="37.83029" lon="-0.77658">
        <ele>7.87712</ele>
        <time>2022-04-29T11:01:25.000Z</time>
      </trkpt>
      <trkpt lat="37.83075" lon="-0.77669">
        <ele>7.905358</ele>
        <time>2022-04-29T11:01:35.000Z</time>
      </trkpt>
      <trkpt lat="37.83111" lon="-0.77678">
        <ele>7.920344</ele>
        <time>2022-04-29T11:01:43.000Z</time>
      </trkpt>
      <trkpt lat="37.83129" lon="-0.77682">
        <ele>7.927996</ele>
        <time>2022-04-29T11:01:47.000Z</time>
      </trkpt>
      <trkpt lat="37.83144" lon="-0.77686">
        <ele>7.934165</ele>
        <time>2022-04-29T11:01:50.000Z</time>
      </trkpt>
      <trkpt lat="37.83155" lon="-0.77688">
        <ele>7.938392</ele>
        <time>2022-04-29T11:01:52.000Z</time>
      </trkpt>
      <trkpt lat="37.83201" lon="-0.777">
        <ele>7.957534</ele>
        <time>2022-04-29T11:02:01.000Z</time>
      </trkpt>
      <trkpt lat="37.83246" lon="-0.77711">
        <ele>7.961737</ele>
        <time>2022-04-29T11:02:10.000Z</time>
      </trkpt>
      <trkpt lat="37.83256" lon="-0.77713">
        <ele>7.956402</ele>
        <time>2022-04-29T11:02:12.000Z</time>
      </trkpt>
      <trkpt lat="37.83285" lon="-0.77721">
        <ele>7.940139</ele>
        <time>2022-04-29T11:02:18.000Z</time>
      </trkpt>
      <trkpt lat="37.83304" lon="-0.77726">
        <ele>7.929581</ele>
        <time>2022-04-29T11:02:22.000Z</time>
      </trkpt>
      <trkpt lat="37.83346" lon="-0.77738">
        <ele>7.90657</ele>
        <time>2022-04-29T11:02:31.000Z</time>
      </trkpt>
      <trkpt lat="37.83382" lon="-0.77746">
        <ele>7.886999</ele>
        <time>2022-04-29T11:02:39.000Z</time>
      </trkpt>
      <trkpt lat="37.83427" lon="-0.77756">
        <ele>7.785996</ele>
        <time>2022-04-29T11:02:49.000Z</time>
      </trkpt>
      <trkpt lat="37.83446" lon="-0.77753">
        <ele>7.704607</ele>
        <time>2022-04-29T11:02:54.000Z</time>
      </trkpt>
      <trkpt lat="37.83457" lon="-0.77734">
        <ele>7.623404</ele>
        <time>2022-04-29T11:02:59.000Z</time>
      </trkpt>
      <trkpt lat="37.83458" lon="-0.77714">
        <ele>7.552107</ele>
        <time>2022-04-29T11:03:05.000Z</time>
      </trkpt>
      <trkpt lat="37.8346" lon="-0.77685">
        <ele>7.452375</ele>
        <time>2022-04-29T11:03:14.000Z</time>
      </trkpt>
      <trkpt lat="37.83462" lon="-0.77668">
        <ele>7.395196</ele>
        <time>2022-04-29T11:03:18.000Z</time>
      </trkpt>
      <trkpt lat="37.83462" lon="-0.77659">
        <ele>7.361223</ele>
        <time>2022-04-29T11:03:20.000Z</time>
      </trkpt>
      <trkpt lat="37.83465" lon="-0.77627">
        <ele>7.251755</ele>
        <time>2022-04-29T11:03:26.000Z</time>
      </trkpt>
      <trkpt lat="37.83465" lon="-0.77622">
        <ele>7.23271</ele>
        <time>2022-04-29T11:03:27.000Z</time>
      </trkpt>
      <trkpt lat="37.83468" lon="-0.7756">
        <ele>7.052505</ele>
        <time>2022-04-29T11:03:38.000Z</time>
      </trkpt>
      <trkpt lat="37.8347" lon="-0.77528">
        <ele>6.995397</ele>
        <time>2022-04-29T11:03:44.000Z</time>
      </trkpt>
      <trkpt lat="37.8347" lon="-0.77521">
        <ele>6.982778</ele>
        <time>2022-04-29T11:03:46.000Z</time>
      </trkpt>
      <trkpt lat="37.83471" lon="-0.77514">
        <ele>6.971348</ele>
        <time>2022-04-29T11:03:48.000Z</time>
      </trkpt>
      <trkpt lat="37.83472" lon="-0.77498">
        <ele>6.943177</ele>
        <time>2022-04-29T11:03:52.000Z</time>
      </trkpt>
      <trkpt lat="37.83472" lon="-0.77494">
        <ele>6.935505</ele>
        <time>2022-04-29T11:03:53.000Z</time>
      </trkpt>
      <trkpt lat="37.83473" lon="-0.77483">
        <ele>6.914682</ele>
        <time>2022-04-29T11:03:56.000Z</time>
      </trkpt>
      <trkpt lat="37.83475" lon="-0.77464">
        <ele>6.881377</ele>
        <time>2022-04-29T11:04:00.000Z</time>
      </trkpt>
      <trkpt lat="37.83475" lon="-0.77458">
        <ele>6.871237</ele>
        <time>2022-04-29T11:04:01.000Z</time>
      </trkpt>
      <trkpt lat="37.83477" lon="-0.77433">
        <ele>6.825445</ele>
        <time>2022-04-29T11:04:06.000Z</time>
      </trkpt>
      <trkpt lat="37.8348" lon="-0.77407">
        <ele>6.779719</ele>
        <time>2022-04-29T11:04:11.000Z</time>
      </trkpt>
      <trkpt lat="37.8348" lon="-0.7739">
        <ele>6.749149</ele>
        <time>2022-04-29T11:04:16.000Z</time>
      </trkpt>
      <trkpt lat="37.8348" lon="-0.77386">
        <ele>6.741681</ele>
        <time>2022-04-29T11:04:21.000Z</time>
      </trkpt>
      <trkpt lat="37.83482" lon="-0.7738">
        <ele>6.730016</ele>
        <time>2022-04-29T11:04:28.000Z</time>
      </trkpt>
      <trkpt lat="37.83484" lon="-0.77364">
        <ele>6.702968</ele>
        <time>2022-04-29T11:04:33.000Z</time>
      </trkpt>
      <trkpt lat="37.83486" lon="-0.7733">
        <ele>6.649061</ele>
        <time>2022-04-29T11:04:41.000Z</time>
      </trkpt>
      <trkpt lat="37.83488" lon="-0.77301">
        <ele>6.607286</ele>
        <time>2022-04-29T11:04:47.000Z</time>
      </trkpt>
      <trkpt lat="37.83489" lon="-0.77287">
        <ele>6.587691</ele>
        <time>2022-04-29T11:04:50.000Z</time>
      </trkpt>
      <trkpt lat="37.83493" lon="-0.7724">
        <ele>6.520345</ele>
        <time>2022-04-29T11:04:59.000Z</time>
      </trkpt>
      <trkpt lat="37.83493" lon="-0.77235">
        <ele>6.512286</ele>
        <time>2022-04-29T11:05:00.000Z</time>
      </trkpt>
      <trkpt lat="37.83494" lon="-0.77187">
        <ele>6.444188</ele>
        <time>2022-04-29T11:05:09.000Z</time>
      </trkpt>
      <trkpt lat="37.83492" lon="-0.77176">
        <ele>6.428246</ele>
        <time>2022-04-29T11:05:11.000Z</time>
      </trkpt>
      <trkpt lat="37.83486" lon="-0.77147">
        <ele>6.384815</ele>
        <time>2022-04-29T11:05:17.000Z</time>
      </trkpt>
      <trkpt lat="37.83475" lon="-0.77104">
        <ele>6.314434</ele>
        <time>2022-04-29T11:05:26.000Z</time>
      </trkpt>
      <trkpt lat="37.8347" lon="-0.77084">
        <ele>6.279022</ele>
        <time>2022-04-29T11:05:32.000Z</time>
      </trkpt>
      <trkpt lat="37.83468" lon="-0.77074">
        <ele>6.260968</ele>
        <time>2022-04-29T11:05:35.000Z</time>
      </trkpt>
      <trkpt lat="37.83462" lon="-0.77052">
        <ele>6.223522</ele>
        <time>2022-04-29T11:05:40.000Z</time>
      </trkpt>
      <trkpt lat="37.83451" lon="-0.77006">
        <ele>6.143314</ele>
        <time>2022-04-29T11:05:50.000Z</time>
      </trkpt>
      <trkpt lat="37.83442" lon="-0.76969">
        <ele>6.078465</ele>
        <time>2022-04-29T11:05:59.000Z</time>
      </trkpt>
      <trkpt lat="37.83437" lon="-0.76946">
        <ele>6.03917</ele>
        <time>2022-04-29T11:06:04.000Z</time>
      </trkpt>
      <trkpt lat="37.83431" lon="-0.76922">
        <ele>5.996157</ele>
        <time>2022-04-29T11:06:09.000Z</time>
      </trkpt>
      <trkpt lat="37.83422" lon="-0.76888">
        <ele>6.012633</ele>
        <time>2022-04-29T11:06:17.000Z</time>
      </trkpt>
      <trkpt lat="37.83406" lon="-0.76836">
        <ele>6.095775</ele>
        <time>2022-04-29T11:06:27.000Z</time>
      </trkpt>
      <trkpt lat="37.8339" lon="-0.7679">
        <ele>6.169701</ele>
        <time>2022-04-29T11:06:36.000Z</time>
      </trkpt>
      <trkpt lat="37.83381" lon="-0.76766">
        <ele>6.209278</ele>
        <time>2022-04-29T11:06:41.000Z</time>
      </trkpt>
      <trkpt lat="37.83373" lon="-0.76748">
        <ele>6.240536</ele>
        <time>2022-04-29T11:06:45.000Z</time>
      </trkpt>
      <trkpt lat="37.83356" lon="-0.76722">
        <ele>6.290057</ele>
        <time>2022-04-29T11:06:51.000Z</time>
      </trkpt>
      <trkpt lat="37.83347" lon="-0.7671">
        <ele>6.314275</ele>
        <time>2022-04-29T11:06:54.000Z</time>
      </trkpt>
      <trkpt lat="37.83337" lon="-0.76699">
        <ele>6.31664</ele>
        <time>2022-04-29T11:06:57.000Z</time>
      </trkpt>
      <trkpt lat="37.83323" lon="-0.76686">
        <ele>6.319481</ele>
        <time>2022-04-29T11:07:01.000Z</time>
      </trkpt>
      <trkpt lat="37.83309" lon="-0.76675">
        <ele>6.322254</ele>
        <time>2022-04-29T11:07:05.000Z</time>
      </trkpt>
      <trkpt lat="37.83294" lon="-0.76666">
        <ele>6.325174</ele>
        <time>2022-04-29T11:07:09.000Z</time>
      </trkpt>
      <trkpt lat="37.8326" lon="-0.76657">
        <ele>6.331006</ele>
        <time>2022-04-29T11:07:17.000Z</time>
      </trkpt>
      <trkpt lat="37.83243" lon="-0.76656">
        <ele>6.333951</ele>
        <time>2022-04-29T11:07:22.000Z</time>
      </trkpt>
      <trkpt lat="37.8323" lon="-0.76661">
        <ele>6.336166</ele>
        <time>2022-04-29T11:07:26.000Z</time>
      </trkpt>
      <trkpt lat="37.8322" lon="-0.76659">
        <ele>6.337906</ele>
        <time>2022-04-29T11:07:29.000Z</time>
      </trkpt>
      <trkpt lat="37.83207" lon="-0.76652">
        <ele>6.340225</ele>
        <time>2022-04-29T11:07:33.000Z</time>
      </trkpt>
      <trkpt lat="37.83195" lon="-0.76647">
        <ele>6.342415</ele>
        <time>2022-04-29T11:07:37.000Z</time>
      </trkpt>
      <trkpt lat="37.83175" lon="-0.76643">
        <ele>6.336515</ele>
        <time>2022-04-29T11:07:42.000Z</time>
      </trkpt>
      <trkpt lat="37.83153" lon="-0.76639">
        <ele>6.306782</ele>
        <time>2022-04-29T11:07:47.000Z</time>
      </trkpt>
      <trkpt lat="37.8314" lon="-0.76635">
        <ele>6.288643</ele>
        <time>2022-04-29T11:07:50.000Z</time>
      </trkpt>
      <trkpt lat="37.83121" lon="-0.76632">
        <ele>6.262579</ele>
        <time>2022-04-29T11:07:54.000Z</time>
      </trkpt>
      <trkpt lat="37.83064" lon="-0.76622">
        <ele>6.186345</ele>
        <time>2022-04-29T11:08:05.000Z</time>
      </trkpt>
      <trkpt lat="37.83011" lon="-0.76612">
        <ele>6.114217</ele>
        <time>2022-04-29T11:08:15.000Z</time>
      </trkpt>
      <trkpt lat="37.83006" lon="-0.76611">
        <ele>6.106878</ele>
        <time>2022-04-29T11:08:16.000Z</time>
      </trkpt>
      <trkpt lat="37.82985" lon="-0.76607">
        <ele>6.060931</ele>
        <time>2022-04-29T11:08:20.000Z</time>
      </trkpt>
      <trkpt lat="37.82976" lon="-0.76606">
        <ele>6.041334</ele>
        <time>2022-04-29T11:08:22.000Z</time>
      </trkpt>
      <trkpt lat="37.82972" lon="-0.76605">
        <ele>6.030908</ele>
        <time>2022-04-29T11:08:23.000Z</time>
      </trkpt>
      <trkpt lat="37.82954" lon="-0.76602">
        <ele>5.991676</ele>
        <time>2022-04-29T11:08:27.000Z</time>
      </trkpt>
      <trkpt lat="37.82948" lon="-0.76601">
        <ele>5.976027</ele>
        <time>2022-04-29T11:08:29.000Z</time>
      </trkpt>
      <trkpt lat="37.82916" lon="-0.76594">
        <ele>5.903054</ele>
        <time>2022-04-29T11:08:37.000Z</time>
      </trkpt>
      <trkpt lat="37.82902" lon="-0.76592">
        <ele>5.872644</ele>
        <time>2022-04-29T11:08:40.000Z</time>
      </trkpt>
      <trkpt lat="37.8288" lon="-0.76589">
        <ele>5.821204</ele>
        <time>2022-04-29T11:08:45.000Z</time>
      </trkpt>
      <trkpt lat="37.82851" lon="-0.76582">
        <ele>5.754749</ele>
        <time>2022-04-29T11:08:52.000Z</time>
      </trkpt>
      <trkpt lat="37.82827" lon="-0.76574">
        <ele>5.698483</ele>
        <time>2022-04-29T11:08:59.000Z</time>
      </trkpt>
      <trkpt lat="37.82809" lon="-0.76558">
        <ele>5.672232</ele>
        <time>2022-04-29T11:09:05.000Z</time>
      </trkpt>
      <trkpt lat="37.82806" lon="-0.76556">
        <ele>5.668021</ele>
        <time>2022-04-29T11:09:06.000Z</time>
      </trkpt>
      <trkpt lat="37.82789" lon="-0.7654">
        <ele>5.644486</ele>
        <time>2022-04-29T11:09:13.000Z</time>
      </trkpt>
      <trkpt lat="37.82775" lon="-0.76529">
        <ele>5.626845</ele>
        <time>2022-04-29T11:09:18.000Z</time>
      </trkpt>
      <trkpt lat="37.8277" lon="-0.76524">
        <ele>5.619089</ele>
        <time>2022-04-29T11:09:20.000Z</time>
      </trkpt>
      <trkpt lat="37.82747" lon="-0.76503">
        <ele>5.587142</ele>
        <time>2022-04-29T11:09:27.000Z</time>
      </trkpt>
      <trkpt lat="37.82737" lon="-0.76494">
        <ele>5.573953</ele>
        <time>2022-04-29T11:09:30.000Z</time>
      </trkpt>
      <trkpt lat="37.82728" lon="-0.76485">
        <ele>5.560832</ele>
        <time>2022-04-29T11:09:34.000Z</time>
      </trkpt>
      <trkpt lat="37.82723" lon="-0.76482">
        <ele>5.55522</ele>
        <time>2022-04-29T11:09:39.000Z</time>
      </trkpt>
      <trkpt lat="37.82718" lon="-0.76477">
        <ele>5.54775</ele>
        <time>2022-04-29T11:09:47.000Z</time>
      </trkpt>
      <trkpt lat="37.82714" lon="-0.76472">
        <ele>5.541113</ele>
        <time>2022-04-29T11:09:54.000Z</time>
      </trkpt>
      <trkpt lat="37.82712" lon="-0.76469">
        <ele>5.537418</ele>
        <time>2022-04-29T11:09:58.000Z</time>
      </trkpt>
      <trkpt lat="37.8271" lon="-0.76467">
        <ele>5.535332</ele>
        <time>2022-04-29T11:10:01.000Z</time>
      </trkpt>
      <trkpt lat="37.82707" lon="-0.76465">
        <ele>5.531446</ele>
        <time>2022-04-29T11:10:03.000Z</time>
      </trkpt>
      <trkpt lat="37.82704" lon="-0.76462">
        <ele>5.526671</ele>
        <time>2022-04-29T11:10:05.000Z</time>
      </trkpt>
      <trkpt lat="37.82687" lon="-0.76446">
        <ele>5.502889</ele>
        <time>2022-04-29T11:10:11.000Z</time>
      </trkpt>
      <trkpt lat="37.82684" lon="-0.76443">
        <ele>5.498952</ele>
        <time>2022-04-29T11:10:12.000Z</time>
      </trkpt>
      <trkpt lat="37.82675" lon="-0.76434">
        <ele>5.483416</ele>
        <time>2022-04-29T11:10:15.000Z</time>
      </trkpt>
      <trkpt lat="37.82665" lon="-0.76426">
        <ele>5.465379</ele>
        <time>2022-04-29T11:10:18.000Z</time>
      </trkpt>
      <trkpt lat="37.82652" lon="-0.76411">
        <ele>5.438851</ele>
        <time>2022-04-29T11:10:22.000Z</time>
      </trkpt>
      <trkpt lat="37.82645" lon="-0.76406">
        <ele>5.426958</ele>
        <time>2022-04-29T11:10:24.000Z</time>
      </trkpt>
      <trkpt lat="37.82621" lon="-0.76381">
        <ele>5.379705</ele>
        <time>2022-04-29T11:10:32.000Z</time>
      </trkpt>
      <trkpt lat="37.82607" lon="-0.76369">
        <ele>5.354809</ele>
        <time>2022-04-29T11:10:36.000Z</time>
      </trkpt>
      <trkpt lat="37.82596" lon="-0.7636">
        <ele>5.334644</ele>
        <time>2022-04-29T11:10:39.000Z</time>
      </trkpt>
      <trkpt lat="37.82566" lon="-0.76331">
        <ele>5.276956</ele>
        <time>2022-04-29T11:10:48.000Z</time>
      </trkpt>
      <trkpt lat="37.82556" lon="-0.76322">
        <ele>5.258579</ele>
        <time>2022-04-29T11:10:51.000Z</time>
      </trkpt>
      <trkpt lat="37.82538" lon="-0.76308">
        <ele>5.226672</ele>
        <time>2022-04-29T11:10:56.000Z</time>
      </trkpt>
      <trkpt lat="37.82506" lon="-0.76277">
        <ele>5.067182</ele>
        <time>2022-04-29T11:11:06.000Z</time>
      </trkpt>
      <trkpt lat="37.82501" lon="-0.76271">
        <ele>5.034805</ele>
        <time>2022-04-29T11:11:11.000Z</time>
      </trkpt>
      <trkpt lat="37.82496" lon="-0.76268">
        <ele>5.014276</ele>
        <time>2022-04-29T11:11:17.000Z</time>
      </trkpt>
      <trkpt lat="37.82495" lon="-0.76266">
        <ele>5.003802</ele>
        <time>2022-04-29T11:11:20.000Z</time>
      </trkpt>
      <trkpt lat="37.82492" lon="-0.76262">
        <ele>4.986004</ele>
        <time>2022-04-29T11:11:28.000Z</time>
      </trkpt>
      <trkpt lat="37.82491" lon="-0.7626">
        <ele>4.977365</ele>
        <time>2022-04-29T11:11:33.000Z</time>
      </trkpt>
      <trkpt lat="37.82491" lon="-0.7626">
        <ele>4.977365</ele>
        <time>2022-04-29T11:11:34.000Z</time>
      </trkpt>
      <trkpt lat="37.82491" lon="-0.7626">
        <ele>4.977365</ele>
        <time>2022-04-29T11:11:46.000Z</time>
      </trkpt>
      <trkpt lat="37.82491" lon="-0.7626">
        <ele>4.977365</ele>
        <time>2022-04-29T11:11:47.000Z</time>
      </trkpt>
      <trkpt lat="37.82491" lon="-0.7626">
        <ele>4.977365</ele>
        <time>2022-04-29T11:11:55.000Z</time>
      </trkpt>
      <trkpt lat="37.8249" lon="-0.76258">
        <ele>4.971233</ele>
        <time>2022-04-29T11:12:06.000Z</time>
      </trkpt>
      <trkpt lat="37.82485" lon="-0.76254">
        <ele>4.94536</ele>
        <time>2022-04-29T11:12:09.000Z</time>
      </trkpt>
      <trkpt lat="37.82483" lon="-0.76253">
        <ele>4.938487</ele>
        <time>2022-04-29T11:12:10.000Z</time>
      </trkpt>
      <trkpt lat="37.82478" lon="-0.76249">
        <ele>4.911188</ele>
        <time>2022-04-29T11:12:16.000Z</time>
      </trkpt>
      <trkpt lat="37.82474" lon="-0.76245">
        <ele>4.892893</ele>
        <time>2022-04-29T11:12:20.000Z</time>
      </trkpt>
      <trkpt lat="37.82472" lon="-0.76244">
        <ele>4.881114</ele>
        <time>2022-04-29T11:12:24.000Z</time>
      </trkpt>
      <trkpt lat="37.82461" lon="-0.76233">
        <ele>4.821781</ele>
        <time>2022-04-29T11:12:29.000Z</time>
      </trkpt>
      <trkpt lat="37.82443" lon="-0.76217">
        <ele>4.732048</ele>
        <time>2022-04-29T11:12:35.000Z</time>
      </trkpt>
      <trkpt lat="37.82417" lon="-0.76191">
        <ele>4.590983</ele>
        <time>2022-04-29T11:12:44.000Z</time>
      </trkpt>
      <trkpt lat="37.82392" lon="-0.7617">
        <ele>4.464663</ele>
        <time>2022-04-29T11:12:52.000Z</time>
      </trkpt>
      <trkpt lat="37.82372" lon="-0.76152">
        <ele>4.481955</ele>
        <time>2022-04-29T11:12:59.000Z</time>
      </trkpt>
      <trkpt lat="37.82369" lon="-0.76147">
        <ele>4.485904</ele>
        <time>2022-04-29T11:13:04.000Z</time>
      </trkpt>
      <trkpt lat="37.82366" lon="-0.76145">
        <ele>4.488883</ele>
        <time>2022-04-29T11:13:10.000Z</time>
      </trkpt>
      <trkpt lat="37.82364" lon="-0.76143">
        <ele>4.490529</ele>
        <time>2022-04-29T11:13:12.000Z</time>
      </trkpt>
      <trkpt lat="37.82356" lon="-0.76135">
        <ele>4.498625</ele>
        <time>2022-04-29T11:13:19.000Z</time>
      </trkpt>
      <trkpt lat="37.8234" lon="-0.7612">
        <ele>4.514663</ele>
        <time>2022-04-29T11:13:25.000Z</time>
      </trkpt>
      <trkpt lat="37.82337" lon="-0.76117">
        <ele>4.517537</ele>
        <time>2022-04-29T11:13:26.000Z</time>
      </trkpt>
      <trkpt lat="37.8232" lon="-0.76098">
        <ele>4.535907</ele>
        <time>2022-04-29T11:13:32.000Z</time>
      </trkpt>
      <trkpt lat="37.82301" lon="-0.76071">
        <ele>4.558594</ele>
        <time>2022-04-29T11:13:39.000Z</time>
      </trkpt>
      <trkpt lat="37.82294" lon="-0.76057">
        <ele>4.568625</ele>
        <time>2022-04-29T11:13:42.000Z</time>
      </trkpt>
      <trkpt lat="37.8229" lon="-0.76048">
        <ele>4.575387</ele>
        <time>2022-04-29T11:13:44.000Z</time>
      </trkpt>
      <trkpt lat="37.82281" lon="-0.76025">
        <ele>4.591437</ele>
        <time>2022-04-29T11:13:49.000Z</time>
      </trkpt>
      <trkpt lat="37.82274" lon="-0.75999">
        <ele>4.608424</ele>
        <time>2022-04-29T11:13:55.000Z</time>
      </trkpt>
      <trkpt lat="37.82271" lon="-0.75975">
        <ele>4.621937</ele>
        <time>2022-04-29T11:14:01.000Z</time>
      </trkpt>
      <trkpt lat="37.8227" lon="-0.75945">
        <ele>4.638043</ele>
        <time>2022-04-29T11:14:07.000Z</time>
      </trkpt>
      <trkpt lat="37.8227" lon="-0.75935">
        <ele>4.643889</ele>
        <time>2022-04-29T11:14:09.000Z</time>
      </trkpt>
      <trkpt lat="37.82269" lon="-0.75894">
        <ele>4.666183</ele>
        <time>2022-04-29T11:14:16.000Z</time>
      </trkpt>
      <trkpt lat="37.82268" lon="-0.75883">
        <ele>4.672268</ele>
        <time>2022-04-29T11:14:18.000Z</time>
      </trkpt>
      <trkpt lat="37.82264" lon="-0.75876">
        <ele>4.677338</ele>
        <time>2022-04-29T11:14:20.000Z</time>
      </trkpt>
      <trkpt lat="37.82249" lon="-0.75874">
        <ele>4.688186</ele>
        <time>2022-04-29T11:14:24.000Z</time>
      </trkpt>
      <trkpt lat="37.82231" lon="-0.75875">
        <ele>4.700195</ele>
        <time>2022-04-29T11:14:28.000Z</time>
      </trkpt>
      <trkpt lat="37.82223" lon="-0.75874">
        <ele>4.70628</ele>
        <time>2022-04-29T11:14:30.000Z</time>
      </trkpt>
      <trkpt lat="37.82219" lon="-0.75872">
        <ele>4.709153</ele>
        <time>2022-04-29T11:14:31.000Z</time>
      </trkpt>
      <trkpt lat="37.82216" lon="-0.75869">
        <ele>4.711911</ele>
        <time>2022-04-29T11:14:32.000Z</time>
      </trkpt>
      <trkpt lat="37.82209" lon="-0.75859">
        <ele>4.719139</ele>
        <time>2022-04-29T11:14:35.000Z</time>
      </trkpt>
      <trkpt lat="37.82204" lon="-0.75853">
        <ele>4.723977</ele>
        <time>2022-04-29T11:14:39.000Z</time>
      </trkpt>
      <trkpt lat="37.82197" lon="-0.7585">
        <ele>4.729052</ele>
        <time>2022-04-29T11:14:43.000Z</time>
      </trkpt>
      <trkpt lat="37.82192" lon="-0.75849">
        <ele>4.728373</ele>
        <time>2022-04-29T11:14:45.000Z</time>
      </trkpt>
      <trkpt lat="37.8219" lon="-0.75849">
        <ele>4.724067</ele>
        <time>2022-04-29T11:14:46.000Z</time>
      </trkpt>
      <trkpt lat="37.82187" lon="-0.75849">
        <ele>4.719612</ele>
        <time>2022-04-29T11:14:47.000Z</time>
      </trkpt>
      <trkpt lat="37.82169" lon="-0.7585">
        <ele>4.69332</ele>
        <time>2022-04-29T11:14:52.000Z</time>
      </trkpt>
      <trkpt lat="37.82161" lon="-0.7585">
        <ele>4.680993</ele>
        <time>2022-04-29T11:14:54.000Z</time>
      </trkpt>
      <trkpt lat="37.82152" lon="-0.75849">
        <ele>4.668627</ele>
        <time>2022-04-29T11:14:56.000Z</time>
      </trkpt>
      <trkpt lat="37.82139" lon="-0.75849">
        <ele>4.649472</ele>
        <time>2022-04-29T11:14:59.000Z</time>
      </trkpt>
      <trkpt lat="37.82135" lon="-0.75849">
        <ele>4.643227</ele>
        <time>2022-04-29T11:15:00.000Z</time>
      </trkpt>
      <trkpt lat="37.82123" lon="-0.7585">
        <ele>4.625537</ele>
        <time>2022-04-29T11:15:03.000Z</time>
      </trkpt>
      <trkpt lat="37.82112" lon="-0.75849">
        <ele>4.608904</ele>
        <time>2022-04-29T11:15:06.000Z</time>
      </trkpt>
      <trkpt lat="37.82066" lon="-0.75848">
        <ele>4.541183</ele>
        <time>2022-04-29T11:15:16.000Z</time>
      </trkpt>
      <trkpt lat="37.82062" lon="-0.75847">
        <ele>4.534033</ele>
        <time>2022-04-29T11:15:17.000Z</time>
      </trkpt>
      <trkpt lat="37.82048" lon="-0.75845">
        <ele>4.512996</ele>
        <time>2022-04-29T11:15:20.000Z</time>
      </trkpt>
      <trkpt lat="37.82028" lon="-0.75847">
        <ele>4.483519</ele>
        <time>2022-04-29T11:15:24.000Z</time>
      </trkpt>
      <trkpt lat="37.81983" lon="-0.75846">
        <ele>4.373357</ele>
        <time>2022-04-29T11:15:33.000Z</time>
      </trkpt>
      <trkpt lat="37.81951" lon="-0.75845">
        <ele>4.28331</ele>
        <time>2022-04-29T11:15:39.000Z</time>
      </trkpt>
      <trkpt lat="37.81936" lon="-0.75841">
        <ele>4.241219</ele>
        <time>2022-04-29T11:15:42.000Z</time>
      </trkpt>
      <trkpt lat="37.81927" lon="-0.75841">
        <ele>4.215477</ele>
        <time>2022-04-29T11:15:44.000Z</time>
      </trkpt>
      <trkpt lat="37.81912" lon="-0.75836">
        <ele>4.171543</ele>
        <time>2022-04-29T11:15:48.000Z</time>
      </trkpt>
      <trkpt lat="37.81901" lon="-0.75834">
        <ele>4.1413</ele>
        <time>2022-04-29T11:15:51.000Z</time>
      </trkpt>
      <trkpt lat="37.81888" lon="-0.75831">
        <ele>4.10283</ele>
        <time>2022-04-29T11:15:55.000Z</time>
      </trkpt>
      <trkpt lat="37.81856" lon="-0.75826">
        <ele>4.011816</ele>
        <time>2022-04-29T11:16:04.000Z</time>
      </trkpt>
      <trkpt lat="37.81839" lon="-0.75823">
        <ele>3.963938</ele>
        <time>2022-04-29T11:16:09.000Z</time>
      </trkpt>
      <trkpt lat="37.81835" lon="-0.75821">
        <ele>3.957412</ele>
        <time>2022-04-29T11:16:11.000Z</time>
      </trkpt>
      <trkpt lat="37.81828" lon="-0.75816">
        <ele>3.961313</ele>
        <time>2022-04-29T11:16:16.000Z</time>
      </trkpt>
      <trkpt lat="37.81826" lon="-0.75814">
        <ele>3.962043</ele>
        <time>2022-04-29T11:16:17.000Z</time>
      </trkpt>
      <trkpt lat="37.81825" lon="-0.75811">
        <ele>3.963282</ele>
        <time>2022-04-29T11:16:20.000Z</time>
      </trkpt>
      <trkpt lat="37.81825" lon="-0.75811">
        <ele>3.963282</ele>
        <time>2022-04-29T11:16:28.000Z</time>
      </trkpt>
      <trkpt lat="37.81826" lon="-0.75811">
        <ele>3.963382</ele>
        <time>2022-04-29T11:16:53.000Z</time>
      </trkpt>
      <trkpt lat="37.81833" lon="-0.75816">
        <ele>3.967126</ele>
        <time>2022-04-29T11:16:56.000Z</time>
      </trkpt>
      <trkpt lat="37.81851" lon="-0.75821">
        <ele>3.975541</ele>
        <time>2022-04-29T11:17:01.000Z</time>
      </trkpt>
      <trkpt lat="37.81883" lon="-0.75829">
        <ele>3.990703</ele>
        <time>2022-04-29T11:17:09.000Z</time>
      </trkpt>
      <trkpt lat="37.8192" lon="-0.75834">
        <ele>4.008</ele>
        <time>2022-04-29T11:17:18.000Z</time>
      </trkpt>
      <trkpt lat="37.81959" lon="-0.7584">
        <ele>4.02592</ele>
        <time>2022-04-29T11:17:27.000Z</time>
      </trkpt>
      <trkpt lat="37.81973" lon="-0.75841">
        <ele>4.032385</ele>
        <time>2022-04-29T11:17:30.000Z</time>
      </trkpt>
      <trkpt lat="37.81999" lon="-0.7584">
        <ele>4.05896</ele>
        <time>2022-04-29T11:17:36.000Z</time>
      </trkpt>
      <trkpt lat="37.82021" lon="-0.75842">
        <ele>4.09831</ele>
        <time>2022-04-29T11:17:41.000Z</time>
      </trkpt>
      <trkpt lat="37.82039" lon="-0.75843">
        <ele>4.130412</ele>
        <time>2022-04-29T11:17:45.000Z</time>
      </trkpt>
      <trkpt lat="37.82087" lon="-0.75844">
        <ele>4.21731</ele>
        <time>2022-04-29T11:17:55.000Z</time>
      </trkpt>
      <trkpt lat="37.82134" lon="-0.75844">
        <ele>4.301527</ele>
        <time>2022-04-29T11:18:04.000Z</time>
      </trkpt>
      <trkpt lat="37.8219" lon="-0.75847">
        <ele>4.330566</ele>
        <time>2022-04-29T11:18:14.000Z</time>
      </trkpt>
      <trkpt lat="37.82227" lon="-0.75845">
        <ele>4.277831</ele>
        <time>2022-04-29T11:18:21.000Z</time>
      </trkpt>
      <trkpt lat="37.82232" lon="-0.75845">
        <ele>4.270508</ele>
        <time>2022-04-29T11:18:22.000Z</time>
      </trkpt>
      <trkpt lat="37.82266" lon="-0.75847">
        <ele>4.220779</ele>
        <time>2022-04-29T11:18:30.000Z</time>
      </trkpt>
      <trkpt lat="37.82276" lon="-0.75856">
        <ele>4.203329</ele>
        <time>2022-04-29T11:18:34.000Z</time>
      </trkpt>
      <trkpt lat="37.82276" lon="-0.75878">
        <ele>4.179277</ele>
        <time>2022-04-29T11:18:38.000Z</time>
      </trkpt>
      <trkpt lat="37.82276" lon="-0.75902">
        <ele>4.15104</ele>
        <time>2022-04-29T11:18:42.000Z</time>
      </trkpt>
      <trkpt lat="37.82277" lon="-0.75923">
        <ele>4.127563</ele>
        <time>2022-04-29T11:18:45.000Z</time>
      </trkpt>
      <trkpt lat="37.82278" lon="-0.75968">
        <ele>4.06333</ele>
        <time>2022-04-29T11:18:52.000Z</time>
      </trkpt>
      <trkpt lat="37.82279" lon="-0.75975">
        <ele>4.051405</ele>
        <time>2022-04-29T11:18:53.000Z</time>
      </trkpt>
      <trkpt lat="37.82283" lon="-0.76001">
        <ele>4.006863</ele>
        <time>2022-04-29T11:18:57.000Z</time>
      </trkpt>
      <trkpt lat="37.82299" lon="-0.76046">
        <ele>3.923244</ele>
        <time>2022-04-29T11:19:04.000Z</time>
      </trkpt>
      <trkpt lat="37.82323" lon="-0.76086">
        <ele>3.838003</ele>
        <time>2022-04-29T11:19:11.000Z</time>
      </trkpt>
      <trkpt lat="37.82326" lon="-0.76091">
        <ele>3.826002</ele>
        <time>2022-04-29T11:19:12.000Z</time>
      </trkpt>
      <trkpt lat="37.82348" lon="-0.76114">
        <ele>3.765544</ele>
        <time>2022-04-29T11:19:18.000Z</time>
      </trkpt>
      <trkpt lat="37.82372" lon="-0.76138">
        <ele>3.735011</ele>
        <time>2022-04-29T11:19:26.000Z</time>
      </trkpt>
      <trkpt lat="37.82391" lon="-0.76157">
        <ele>3.787439</ele>
        <time>2022-04-29T11:19:32.000Z</time>
      </trkpt>
      <trkpt lat="37.82404" lon="-0.76169">
        <ele>3.821274</ele>
        <time>2022-04-29T11:19:36.000Z</time>
      </trkpt>
      <trkpt lat="37.82419" lon="-0.76182">
        <ele>3.860152</ele>
        <time>2022-04-29T11:19:40.000Z</time>
      </trkpt>
      <trkpt lat="37.82435" lon="-0.76197">
        <ele>3.903568</ele>
        <time>2022-04-29T11:19:44.000Z</time>
      </trkpt>
      <trkpt lat="37.82472" lon="-0.76232">
        <ele>4.001909</ele>
        <time>2022-04-29T11:19:53.000Z</time>
      </trkpt>
      <trkpt lat="37.82498" lon="-0.76258">
        <ele>4.072917</ele>
        <time>2022-04-29T11:19:59.000Z</time>
      </trkpt>
      <trkpt lat="37.82516" lon="-0.76275">
        <ele>4.084461</ele>
        <time>2022-04-29T11:20:03.000Z</time>
      </trkpt>
      <trkpt lat="37.8256" lon="-0.76316">
        <ele>3.969397</ele>
        <time>2022-04-29T11:20:13.000Z</time>
      </trkpt>
      <trkpt lat="37.82568" lon="-0.76324">
        <ele>3.947958</ele>
        <time>2022-04-29T11:20:15.000Z</time>
      </trkpt>
      <trkpt lat="37.82572" lon="-0.76328">
        <ele>3.936683</ele>
        <time>2022-04-29T11:20:16.000Z</time>
      </trkpt>
      <trkpt lat="37.826" lon="-0.76352">
        <ele>3.866373</ele>
        <time>2022-04-29T11:20:22.000Z</time>
      </trkpt>
      <trkpt lat="37.82627" lon="-0.76378">
        <ele>3.794586</ele>
        <time>2022-04-29T11:20:28.000Z</time>
      </trkpt>
      <trkpt lat="37.8264" lon="-0.76391">
        <ele>3.75935</ele>
        <time>2022-04-29T11:20:31.000Z</time>
      </trkpt>
      <trkpt lat="37.82686" lon="-0.76434">
        <ele>3.654818</ele>
        <time>2022-04-29T11:20:41.000Z</time>
      </trkpt>
      <trkpt lat="37.82695" lon="-0.76443">
        <ele>3.634971</ele>
        <time>2022-04-29T11:20:43.000Z</time>
      </trkpt>
      <trkpt lat="37.82737" lon="-0.7648">
        <ele>3.548187</ele>
        <time>2022-04-29T11:20:52.000Z</time>
      </trkpt>
      <trkpt lat="37.82753" lon="-0.76495">
        <ele>3.513834</ele>
        <time>2022-04-29T11:20:57.000Z</time>
      </trkpt>
      <trkpt lat="37.82757" lon="-0.76499">
        <ele>3.505913</ele>
        <time>2022-04-29T11:20:58.000Z</time>
      </trkpt>
      <trkpt lat="37.82773" lon="-0.76512">
        <ele>3.47331</ele>
        <time>2022-04-29T11:21:02.000Z</time>
      </trkpt>
      <trkpt lat="37.82785" lon="-0.76523">
        <ele>3.447547</ele>
        <time>2022-04-29T11:21:05.000Z</time>
      </trkpt>
      <trkpt lat="37.82789" lon="-0.76527">
        <ele>3.439133</ele>
        <time>2022-04-29T11:21:06.000Z</time>
      </trkpt>
      <trkpt lat="37.82793" lon="-0.76531">
        <ele>3.430358</ele>
        <time>2022-04-29T11:21:07.000Z</time>
      </trkpt>
      <trkpt lat="37.82802" lon="-0.76537">
        <ele>3.417144</ele>
        <time>2022-04-29T11:21:09.000Z</time>
      </trkpt>
      <trkpt lat="37.82812" lon="-0.76544">
        <ele>3.41996</ele>
        <time>2022-04-29T11:21:11.000Z</time>
      </trkpt>
      <trkpt lat="37.82822" lon="-0.76551">
        <ele>3.422777</ele>
        <time>2022-04-29T11:21:13.000Z</time>
      </trkpt>
      <trkpt lat="37.82865" lon="-0.76572">
        <ele>3.434263</ele>
        <time>2022-04-29T11:21:21.000Z</time>
      </trkpt>
      <trkpt lat="37.82911" lon="-0.76584">
        <ele>3.446017</ele>
        <time>2022-04-29T11:21:29.000Z</time>
      </trkpt>
      <trkpt lat="37.82935" lon="-0.76587">
        <ele>3.452049</ele>
        <time>2022-04-29T11:21:33.000Z</time>
      </trkpt>
      <trkpt lat="37.82959" lon="-0.76592">
        <ele>3.457987</ele>
        <time>2022-04-29T11:21:37.000Z</time>
      </trkpt>
      <trkpt lat="37.82986" lon="-0.76597">
        <ele>3.448565</ele>
        <time>2022-04-29T11:21:42.000Z</time>
      </trkpt>
      <trkpt lat="37.83012" lon="-0.76602">
        <ele>3.42492</ele>
        <time>2022-04-29T11:21:47.000Z</time>
      </trkpt>
      <trkpt lat="37.8307" lon="-0.76612">
        <ele>3.370808</ele>
        <time>2022-04-29T11:21:58.000Z</time>
      </trkpt>
      <trkpt lat="37.83086" lon="-0.76615">
        <ele>3.355931</ele>
        <time>2022-04-29T11:22:01.000Z</time>
      </trkpt>
      <trkpt lat="37.83119" lon="-0.76621">
        <ele>3.325545</ele>
        <time>2022-04-29T11:22:07.000Z</time>
      </trkpt>
      <trkpt lat="37.83124" lon="-0.76622">
        <ele>3.32098</ele>
        <time>2022-04-29T11:22:08.000Z</time>
      </trkpt>
      <trkpt lat="37.83139" lon="-0.76624">
        <ele>3.306774</ele>
        <time>2022-04-29T11:22:11.000Z</time>
      </trkpt>
      <trkpt lat="37.83192" lon="-0.76636">
        <ele>3.193332</ele>
        <time>2022-04-29T11:22:22.000Z</time>
      </trkpt>
      <trkpt lat="37.83196" lon="-0.76637">
        <ele>3.183132</ele>
        <time>2022-04-29T11:22:23.000Z</time>
      </trkpt>
      <trkpt lat="37.83201" lon="-0.76638">
        <ele>3.17166</ele>
        <time>2022-04-29T11:22:24.000Z</time>
      </trkpt>
      <trkpt lat="37.8321" lon="-0.7664">
        <ele>3.150412</ele>
        <time>2022-04-29T11:22:26.000Z</time>
      </trkpt>
      <trkpt lat="37.83223" lon="-0.76643">
        <ele>3.116213</ele>
        <time>2022-04-29T11:22:29.000Z</time>
      </trkpt>
      <trkpt lat="37.83262" lon="-0.76649">
        <ele>3.022667</ele>
        <time>2022-04-29T11:22:37.000Z</time>
      </trkpt>
      <trkpt lat="37.83271" lon="-0.76651">
        <ele>2.998408</ele>
        <time>2022-04-29T11:22:39.000Z</time>
      </trkpt>
      <trkpt lat="37.83276" lon="-0.76653">
        <ele>2.9865</ele>
        <time>2022-04-29T11:22:40.000Z</time>
      </trkpt>
      <trkpt lat="37.83316" lon="-0.7667">
        <ele>2.885019</ele>
        <time>2022-04-29T11:22:49.000Z</time>
      </trkpt>
      <trkpt lat="37.83343" lon="-0.76696">
        <ele>2.836662</ele>
        <time>2022-04-29T11:22:56.000Z</time>
      </trkpt>
      <trkpt lat="37.83375" lon="-0.7674">
        <ele>2.792381</ele>
        <time>2022-04-29T11:23:05.000Z</time>
      </trkpt>
      <trkpt lat="37.83392" lon="-0.76773">
        <ele>2.763343</ele>
        <time>2022-04-29T11:23:11.000Z</time>
      </trkpt>
      <trkpt lat="37.83394" lon="-0.76779">
        <ele>2.758588</ele>
        <time>2022-04-29T11:23:12.000Z</time>
      </trkpt>
      <trkpt lat="37.83407" lon="-0.76815">
        <ele>2.728751</ele>
        <time>2022-04-29T11:23:18.000Z</time>
      </trkpt>
      <trkpt lat="37.83421" lon="-0.76859">
        <ele>2.693586</ele>
        <time>2022-04-29T11:23:25.000Z</time>
      </trkpt>
      <trkpt lat="37.83438" lon="-0.76922">
        <ele>2.760219</ele>
        <time>2022-04-29T11:23:34.000Z</time>
      </trkpt>
      <trkpt lat="37.83455" lon="-0.76987">
        <ele>2.839131</ele>
        <time>2022-04-29T11:23:43.000Z</time>
      </trkpt>
      <trkpt lat="37.83459" lon="-0.77002">
        <ele>2.856553</ele>
        <time>2022-04-29T11:23:45.000Z</time>
      </trkpt>
      <trkpt lat="37.83476" lon="-0.7707">
        <ele>2.938515</ele>
        <time>2022-04-29T11:23:55.000Z</time>
      </trkpt>
      <trkpt lat="37.83493" lon="-0.77139">
        <ele>3.117189</ele>
        <time>2022-04-29T11:24:05.000Z</time>
      </trkpt>
      <trkpt lat="37.835" lon="-0.77174">
        <ele>3.217455</ele>
        <time>2022-04-29T11:24:10.000Z</time>
      </trkpt>
      <trkpt lat="37.83503" lon="-0.77196">
        <ele>3.27713</ele>
        <time>2022-04-29T11:24:13.000Z</time>
      </trkpt>
      <trkpt lat="37.83503" lon="-0.77219">
        <ele>3.340484</ele>
        <time>2022-04-29T11:24:16.000Z</time>
      </trkpt>
      <trkpt lat="37.83502" lon="-0.77235">
        <ele>3.383554</ele>
        <time>2022-04-29T11:24:18.000Z</time>
      </trkpt>
      <trkpt lat="37.83498" lon="-0.77273">
        <ele>3.488549</ele>
        <time>2022-04-29T11:24:23.000Z</time>
      </trkpt>
      <trkpt lat="37.83492" lon="-0.77346">
        <ele>3.608331</ele>
        <time>2022-04-29T11:24:33.000Z</time>
      </trkpt>
      <trkpt lat="37.83491" lon="-0.77354">
        <ele>3.614815</ele>
        <time>2022-04-29T11:24:34.000Z</time>
      </trkpt>
      <trkpt lat="37.83486" lon="-0.77422">
        <ele>3.675856</ele>
        <time>2022-04-29T11:24:43.000Z</time>
      </trkpt>
      <trkpt lat="37.83483" lon="-0.7746">
        <ele>3.709486</ele>
        <time>2022-04-29T11:24:48.000Z</time>
      </trkpt>
      <trkpt lat="37.83477" lon="-0.77535">
        <ele>3.794617</ele>
        <time>2022-04-29T11:24:58.000Z</time>
      </trkpt>
      <trkpt lat="37.83472" lon="-0.77601">
        <ele>4.103413</ele>
        <time>2022-04-29T11:25:07.000Z</time>
      </trkpt>
      <trkpt lat="37.83469" lon="-0.77636">
        <ele>4.265914</ele>
        <time>2022-04-29T11:25:12.000Z</time>
      </trkpt>
      <trkpt lat="37.83468" lon="-0.77663">
        <ele>4.393727</ele>
        <time>2022-04-29T11:25:16.000Z</time>
      </trkpt>
      <trkpt lat="37.83465" lon="-0.7769">
        <ele>4.52008</ele>
        <time>2022-04-29T11:25:20.000Z</time>
      </trkpt>
      <trkpt lat="37.83463" lon="-0.77717">
        <ele>4.647695</ele>
        <time>2022-04-29T11:25:24.000Z</time>
      </trkpt>
      <trkpt lat="37.83461" lon="-0.77724">
        <ele>4.678655</ele>
        <time>2022-04-29T11:25:25.000Z</time>
      </trkpt>
      <trkpt lat="37.83459" lon="-0.7773">
        <ele>4.708996</ele>
        <time>2022-04-29T11:25:26.000Z</time>
      </trkpt>
      <trkpt lat="37.83452" lon="-0.77745">
        <ele>4.791451</ele>
        <time>2022-04-29T11:25:29.000Z</time>
      </trkpt>
      <trkpt lat="37.8345" lon="-0.7775">
        <ele>4.817757</ele>
        <time>2022-04-29T11:25:30.000Z</time>
      </trkpt>
      <trkpt lat="37.83447" lon="-0.77753">
        <ele>4.832149</ele>
        <time>2022-04-29T11:25:31.000Z</time>
      </trkpt>
      <trkpt lat="37.83437" lon="-0.77761">
        <ele>4.84249</ele>
        <time>2022-04-29T11:25:34.000Z</time>
      </trkpt>
      <trkpt lat="37.83425" lon="-0.77761">
        <ele>4.853488</ele>
        <time>2022-04-29T11:25:37.000Z</time>
      </trkpt>
      <trkpt lat="37.8342" lon="-0.77759">
        <ele>4.858014</ele>
        <time>2022-04-29T11:25:38.000Z</time>
      </trkpt>
      <trkpt lat="37.83411" lon="-0.77757">
        <ele>4.86584</ele>
        <time>2022-04-29T11:25:40.000Z</time>
      </trkpt>
      <trkpt lat="37.83387" lon="-0.7775">
        <ele>4.887408</ele>
        <time>2022-04-29T11:25:45.000Z</time>
      </trkpt>
      <trkpt lat="37.83372" lon="-0.77745">
        <ele>4.901441</ele>
        <time>2022-04-29T11:25:48.000Z</time>
      </trkpt>
      <trkpt lat="37.83368" lon="-0.77744">
        <ele>4.904934</ele>
        <time>2022-04-29T11:25:49.000Z</time>
      </trkpt>
      <trkpt lat="37.83327" lon="-0.77732">
        <ele>4.942359</ele>
        <time>2022-04-29T11:25:57.000Z</time>
      </trkpt>
      <trkpt lat="37.83301" lon="-0.77725">
        <ele>4.965805</ele>
        <time>2022-04-29T11:26:02.000Z</time>
      </trkpt>
      <trkpt lat="37.83263" lon="-0.77715">
        <ele>4.952274</ele>
        <time>2022-04-29T11:26:09.000Z</time>
      </trkpt>
      <trkpt lat="37.83246" lon="-0.77711">
        <ele>4.898012</ele>
        <time>2022-04-29T11:26:12.000Z</time>
      </trkpt>
      <trkpt lat="37.8324" lon="-0.7771">
        <ele>4.87994</ele>
        <time>2022-04-29T11:26:13.000Z</time>
      </trkpt>
      <trkpt lat="37.83217" lon="-0.77704">
        <ele>4.80615</ele>
        <time>2022-04-29T11:26:17.000Z</time>
      </trkpt>
      <trkpt lat="37.83173" lon="-0.77692">
        <ele>4.667334</ele>
        <time>2022-04-29T11:26:24.000Z</time>
      </trkpt>
      <trkpt lat="37.83161" lon="-0.77689">
        <ele>4.629778</ele>
        <time>2022-04-29T11:26:26.000Z</time>
      </trkpt>
      <trkpt lat="37.8312" lon="-0.77679">
        <ele>4.499185</ele>
        <time>2022-04-29T11:26:33.000Z</time>
      </trkpt>
      <trkpt lat="37.83062" lon="-0.77666">
        <ele>4.472821</ele>
        <time>2022-04-29T11:26:43.000Z</time>
      </trkpt>
      <trkpt lat="37.83044" lon="-0.77662">
        <ele>4.493855</ele>
        <time>2022-04-29T11:26:46.000Z</time>
      </trkpt>
      <trkpt lat="37.83021" lon="-0.77657">
        <ele>4.521556</ele>
        <time>2022-04-29T11:26:50.000Z</time>
      </trkpt>
      <trkpt lat="37.83005" lon="-0.77653">
        <ele>4.541648</ele>
        <time>2022-04-29T11:26:53.000Z</time>
      </trkpt>
      <trkpt lat="37.82999" lon="-0.77652">
        <ele>4.548218</ele>
        <time>2022-04-29T11:26:54.000Z</time>
      </trkpt>
      <trkpt lat="37.82995" lon="-0.7765">
        <ele>4.553488</ele>
        <time>2022-04-29T11:26:55.000Z</time>
      </trkpt>
      <trkpt lat="37.82984" lon="-0.77648">
        <ele>4.566512</ele>
        <time>2022-04-29T11:26:57.000Z</time>
      </trkpt>
      <trkpt lat="37.82956" lon="-0.7764">
        <ele>4.601407</ele>
        <time>2022-04-29T11:27:02.000Z</time>
      </trkpt>
      <trkpt lat="37.82945" lon="-0.77637">
        <ele>4.614491</ele>
        <time>2022-04-29T11:27:04.000Z</time>
      </trkpt>
      <trkpt lat="37.82892" lon="-0.77623">
        <ele>4.499771</ele>
        <time>2022-04-29T11:27:14.000Z</time>
      </trkpt>
      <trkpt lat="37.82886" lon="-0.77622">
        <ele>4.47217</ele>
        <time>2022-04-29T11:27:15.000Z</time>
      </trkpt>
      <trkpt lat="37.82829" lon="-0.77609">
        <ele>4.19441</ele>
        <time>2022-04-29T11:27:25.000Z</time>
      </trkpt>
      <trkpt lat="37.82788" lon="-0.77598">
        <ele>3.996536</ele>
        <time>2022-04-29T11:27:31.000Z</time>
      </trkpt>
      <trkpt lat="37.82745" lon="-0.77587">
        <ele>3.786289</ele>
        <time>2022-04-29T11:27:38.000Z</time>
      </trkpt>
      <trkpt lat="37.82732" lon="-0.77585">
        <ele>3.79102</ele>
        <time>2022-04-29T11:27:40.000Z</time>
      </trkpt>
      <trkpt lat="37.82684" lon="-0.77573">
        <ele>3.810435</ele>
        <time>2022-04-29T11:27:48.000Z</time>
      </trkpt>
      <trkpt lat="37.8263" lon="-0.77561">
        <ele>3.832279</ele>
        <time>2022-04-29T11:27:57.000Z</time>
      </trkpt>
      <trkpt lat="37.82624" lon="-0.77559">
        <ele>3.834674</ele>
        <time>2022-04-29T11:27:58.000Z</time>
      </trkpt>
      <trkpt lat="37.82595" lon="-0.77551">
        <ele>3.846438</ele>
        <time>2022-04-29T11:28:03.000Z</time>
      </trkpt>
      <trkpt lat="37.82567" lon="-0.77544">
        <ele>3.857831</ele>
        <time>2022-04-29T11:28:08.000Z</time>
      </trkpt>
      <trkpt lat="37.82523" lon="-0.77534">
        <ele>3.875093</ele>
        <time>2022-04-29T11:28:16.000Z</time>
      </trkpt>
      <trkpt lat="37.82467" lon="-0.77521">
        <ele>3.896761</ele>
        <time>2022-04-29T11:28:26.000Z</time>
      </trkpt>
      <trkpt lat="37.82462" lon="-0.7752">
        <ele>3.898873</ele>
        <time>2022-04-29T11:28:27.000Z</time>
      </trkpt>
      <trkpt lat="37.82428" lon="-0.77516">
        <ele>3.911842</ele>
        <time>2022-04-29T11:28:33.000Z</time>
      </trkpt>
      <trkpt lat="37.82422" lon="-0.77517">
        <ele>3.914171</ele>
        <time>2022-04-29T11:28:34.000Z</time>
      </trkpt>
      <trkpt lat="37.82379" lon="-0.77524">
        <ele>3.914864</ele>
        <time>2022-04-29T11:28:41.000Z</time>
      </trkpt>
      <trkpt lat="37.82325" lon="-0.77536">
        <ele>3.860778</ele>
        <time>2022-04-29T11:28:50.000Z</time>
      </trkpt>
      <trkpt lat="37.82319" lon="-0.77537">
        <ele>3.855054</ele>
        <time>2022-04-29T11:28:51.000Z</time>
      </trkpt>
      <trkpt lat="37.82283" lon="-0.77543">
        <ele>3.818929</ele>
        <time>2022-04-29T11:28:58.000Z</time>
      </trkpt>
      <trkpt lat="37.82237" lon="-0.77552">
        <ele>3.773074</ele>
        <time>2022-04-29T11:29:07.000Z</time>
      </trkpt>
      <trkpt lat="37.8221" lon="-0.77558">
        <ele>3.742339</ele>
        <time>2022-04-29T11:29:12.000Z</time>
      </trkpt>
      <trkpt lat="37.82199" lon="-0.7756">
        <ele>3.716712</ele>
        <time>2022-04-29T11:29:14.000Z</time>
      </trkpt>
      <trkpt lat="37.82162" lon="-0.77575">
        <ele>3.628032</ele>
        <time>2022-04-29T11:29:21.000Z</time>
      </trkpt>
      <trkpt lat="37.82143" lon="-0.77586">
        <ele>3.579452</ele>
        <time>2022-04-29T11:29:25.000Z</time>
      </trkpt>
      <trkpt lat="37.82132" lon="-0.77592">
        <ele>3.553912</ele>
        <time>2022-04-29T11:29:27.000Z</time>
      </trkpt>
      <trkpt lat="37.82118" lon="-0.77599">
        <ele>3.519385</ele>
        <time>2022-04-29T11:29:30.000Z</time>
      </trkpt>
      <trkpt lat="37.82107" lon="-0.77604">
        <ele>3.491949</ele>
        <time>2022-04-29T11:29:33.000Z</time>
      </trkpt>
      <trkpt lat="37.82106" lon="-0.77605">
        <ele>3.488386</ele>
        <time>2022-04-29T11:29:34.000Z</time>
      </trkpt>
      <trkpt lat="37.82104" lon="-0.77607">
        <ele>3.483337</ele>
        <time>2022-04-29T11:29:37.000Z</time>
      </trkpt>
      <trkpt lat="37.82102" lon="-0.7761">
        <ele>3.476119</ele>
        <time>2022-04-29T11:29:39.000Z</time>
      </trkpt>
      <trkpt lat="37.821" lon="-0.77615">
        <ele>3.466401</ele>
        <time>2022-04-29T11:29:41.000Z</time>
      </trkpt>
      <trkpt lat="37.8209" lon="-0.77626">
        <ele>3.436199</ele>
        <time>2022-04-29T11:29:46.000Z</time>
      </trkpt>
      <trkpt lat="37.82086" lon="-0.77631">
        <ele>3.422385</ele>
        <time>2022-04-29T11:29:50.000Z</time>
      </trkpt>
      <trkpt lat="37.82083" lon="-0.77631">
        <ele>3.416914</ele>
        <time>2022-04-29T11:29:51.000Z</time>
      </trkpt>
      <trkpt lat="37.82066" lon="-0.77629">
        <ele>3.378352</ele>
        <time>2022-04-29T11:29:56.000Z</time>
      </trkpt>
      <trkpt lat="37.82048" lon="-0.77639">
        <ele>3.339315</ele>
        <time>2022-04-29T11:30:01.000Z</time>
      </trkpt>
      <trkpt lat="37.82046" lon="-0.77641">
        <ele>3.339315</ele>
        <time>2022-04-29T11:30:02.000Z</time>
      </trkpt>
      <trkpt lat="37.82033" lon="-0.77658">
        <ele>3.339315</ele>
        <time>2022-04-29T11:30:07.000Z</time>
      </trkpt>
      <trkpt lat="37.82029" lon="-0.7767">
        <ele>3.339315</ele>
        <time>2022-04-29T11:30:12.000Z</time>
      </trkpt>
      <trkpt lat="37.82029" lon="-0.7767">
        <ele>3.339315</ele>
        <time>2022-04-29T11:30:15.000Z</time>
      </trkpt>
      <trkpt lat="37.82029" lon="-0.7767">
        <ele>3.339315</ele>
        <time>2022-04-29T11:30:21.000Z</time>
      </trkpt>
      <trkpt lat="37.82029" lon="-0.7767">
        <ele>3.339315</ele>
        <time>2022-04-29T11:30:30.000Z</time>
      </trkpt>
      <trkpt lat="37.82026" lon="-0.77678">
        <ele>3.339315</ele>
        <time>2022-04-29T11:30:44.000Z</time>
      </trkpt>
      <trkpt lat="37.82025" lon="-0.77682">
        <ele>3.339315</ele>
        <time>2022-04-29T11:30:45.000Z</time>
      </trkpt>
      <trkpt lat="37.82027" lon="-0.77691">
        <ele>3.339315</ele>
        <time>2022-04-29T11:30:48.000Z</time>
      </trkpt>
      <trkpt lat="37.82028" lon="-0.77712">
        <ele>3.339315</ele>
        <time>2022-04-29T11:30:54.000Z</time>
      </trkpt>
      <trkpt lat="37.82025" lon="-0.77737">
        <ele>3.339315</ele>
        <time>2022-04-29T11:31:00.000Z</time>
      </trkpt>
      <trkpt lat="37.82022" lon="-0.77743">
        <ele>3.339315</ele>
        <time>2022-04-29T11:31:03.000Z</time>
      </trkpt>
      <trkpt lat="37.82022" lon="-0.77745">
        <ele>3.339315</ele>
        <time>2022-04-29T11:31:05.000Z</time>
      </trkpt>
      <trkpt lat="37.82022" lon="-0.77747">
        <ele>3.339315</ele>
        <time>2022-04-29T11:31:12.000Z</time>
      </trkpt>
      <trkpt lat="37.82022" lon="-0.77747">
        <ele>3.339315</ele>
        <time>2022-04-29T11:31:20.000Z</time>
      </trkpt>
      <trkpt lat="37.82022" lon="-0.77747">
        <ele>3.339315</ele>
        <time>2022-04-29T11:31:21.000Z</time>
      </trkpt>
      <trkpt lat="37.82022" lon="-0.77747">
        <ele>3.339315</ele>
        <time>2022-04-29T11:31:30.000Z</time>
      </trkpt>
      <trkpt lat="37.82022" lon="-0.77747">
        <ele>3.339315</ele>
        <time>2022-04-29T11:31:39.000Z</time>
      </trkpt>
      <trkpt lat="37.82022" lon="-0.77747">
        <ele>3.339315</ele>
        <time>2022-04-29T11:31:56.000Z</time>
      </trkpt>
    </trkseg>
  </trk>
</gpx>